Time,TemperatureF,DewpointF,PressureIn,WindDirection,WindDirectionDegrees,WindSpeedMPH,WindSpeedGustMPH,Humidity,HourlyPrecipIn,Conditions,Clouds,dailyrainin,SoftwareType,DateUTC
2013-07-17 00:00:00,80.4,80.4,30.19,SSE,165,2.1,25.7,100,0.01,,SKC,0.01,VWS V14.01,2013-07-17 04:00:00,
2013-07-17 00:01:00,80.5,80.5,30.18,SSE,158,5.5,25.7,100,0.01,,SKC,0.01,VWS V14.01,2013-07-17 04:01:00,
2013-07-17 00:02:00,80.3,80.3,30.19,SSE,159,5.4,25.7,100,0.01,,SKC,0.01,VWS V14.01,2013-07-17 04:02:00,
2013-07-17 00:03:00,80.5,80.5,30.19,SW,214,3.9,25.7,100,0.01,,SKC,0.01,VWS V14.01,2013-07-17 04:03:00,
2013-07-17 00:04:00,80.4,80.4,30.18,SSE,153,0.0,25.7,100,0.01,,SKC,0.01,VWS V14.01,2013-07-17 04:04:00,
2013-07-17 00:05:00,80.4,80.4,30.18,North,359,1.7,25.7,100,0.01,,SKC,0.01,VWS V14.01,2013-07-17 04:05:00,
2013-07-17 00:06:00,80.5,80.5,30.18,North,359,7.8,25.7,100,0.01,,SKC,0.01,VWS V14.01,2013-07-17 04:06:00,
2013-07-17 00:09:00,80.5,80.5,30.18,South,190,9.0,25.7,100,0.01,,SKC,0.01,VWS V14.01,2013-07-17 04:09:00,
2013-07-17 00:10:00,80.5,80.5,30.18,South,173,3.0,25.7,100,0.01,,SKC,0.01,VWS V14.01,2013-07-17 04:10:00,
2013-07-17 00:11:00,80.4,80.4,30.18,SSE,166,5.2,25.7,100,0.01,,SKC,0.01,VWS V14.01,2013-07-17 04:11:00,
2013-07-17 00:14:00,80.5,80.5,30.18,South,184,6.7,25.7,100,0.01,,SKC,0.01,VWS V14.01,2013-07-17 04:14:00,
2013-07-17 00:15:00,80.4,80.4,30.18,South,176,7.2,25.7,100,0.01,,SKC,0.01,VWS V14.01,2013-07-17 04:15:00,
2013-07-17 00:16:00,80.5,80.5,30.18,North,359,1.4,25.7,100,0.01,,SKC,0.01,VWS V14.01,2013-07-17 04:16:00,
2013-07-17 00:19:00,80.4,80.4,30.18,North,359,1.7,25.7,100,0.01,,SKC,0.01,VWS V14.01,2013-07-17 04:19:00,
2013-07-17 00:20:00,80.4,80.4,30.18,North,359,1.1,25.7,100,0.01,,SKC,0.01,VWS V14.01,2013-07-17 04:20:00,
2013-07-17 00:21:00,80.4,80.4,30.18,South,190,2.6,25.7,100,0.01,,SKC,0.01,VWS V14.01,2013-07-17 04:21:00,
2013-07-17 00:24:00,80.3,80.3,30.18,SSE,166,9.9,25.7,100,0.01,,SKC,0.01,VWS V14.01,2013-07-17 04:24:00,
2013-07-17 00:25:00,80.4,80.3,30.19,SSE,166,5.5,25.7,100,0.01,,SKC,0.01,VWS V14.01,2013-07-17 04:25:00,
2013-07-17 00:26:00,80.3,80.3,30.18,SW,214,1.9,25.7,100,0.01,,SKC,0.01,VWS V14.01,2013-07-17 04:26:00,
2013-07-17 00:29:00,80.3,80.3,30.19,SW,224,7.9,25.7,100,0.01,,SKC,0.01,VWS V14.01,2013-07-17 04:29:00,
2013-07-17 00:30:00,80.3,80.3,30.19,South,183,8.6,25.7,100,0.01,,SKC,0.01,VWS V14.01,2013-07-17 04:30:00,
2013-07-17 00:31:00,80.4,80.4,30.18,South,186,5.0,25.7,100,0.01,,SKC,0.01,VWS V14.01,2013-07-17 04:31:00,
2013-07-17 00:34:00,80.4,80.4,30.19,South,169,6.1,25.7,100,0.01,,SKC,0.01,VWS V14.01,2013-07-17 04:34:00,
2013-07-17 00:35:00,80.4,80.4,30.19,SSW,200,7.0,25.7,100,0.01,,SKC,0.01,VWS V14.01,2013-07-17 04:35:00,
2013-07-17 00:36:00,80.4,80.4,30.19,South,180,8.9,25.7,100,0.01,,SKC,0.01,VWS V14.01,2013-07-17 04:36:00,
2013-07-17 00:37:00,80.4,80.4,30.19,North,359,4.7,25.7,100,0.01,,SKC,0.01,VWS V14.01,2013-07-17 04:37:00,
2013-07-17 00:39:00,80.4,80.4,30.19,South,173,8.8,25.7,100,0.01,,SKC,0.01,VWS V14.01,2013-07-17 04:39:00,
2013-07-17 00:40:00,80.4,80.4,30.19,SSE,162,9.6,25.7,100,0.01,,SKC,0.01,VWS V14.01,2013-07-17 04:40:00,
2013-07-17 00:41:00,80.5,80.5,30.19,South,173,1.2,25.7,100,0.01,,SKC,0.01,VWS V14.01,2013-07-17 04:41:00,
2013-07-17 00:42:00,80.5,80.5,30.19,SSE,159,2.5,25.7,100,0.01,,SKC,0.01,VWS V14.01,2013-07-17 04:42:00,
2013-07-17 00:44:00,80.3,80.3,30.19,SSE,162,9.2,25.7,100,0.01,,SKC,0.01,VWS V14.01,2013-07-17 04:44:00,
2013-07-17 00:45:00,80.3,80.4,30.19,South,174,3.5,25.7,100,0.01,,SKC,0.01,VWS V14.01,2013-07-17 04:45:00,
2013-07-17 00:46:00,80.5,80.5,30.19,SSW,198,4.5,25.7,100,0.01,,SKC,0.01,VWS V14.01,2013-07-17 04:46:00,
2013-07-17 00:47:00,80.3,80.3,30.19,SSE,166,10.3,25.7,100,0.01,,SKC,0.01,VWS V14.01,2013-07-17 04:47:00,
2013-07-17 00:50:00,80.5,80.5,30.19,South,186,7.3,25.7,100,0.01,,SKC,0.01,VWS V14.01,2013-07-17 04:50:00,
2013-07-17 00:51:00,80.5,80.5,30.19,South,180,9.3,25.7,100,0.01,,SKC,0.01,VWS V14.01,2013-07-17 04:51:00,
2013-07-17 00:52:00,80.3,80.3,30.19,SSW,211,5.4,25.7,100,0.01,,SKC,0.01,VWS V14.01,2013-07-17 04:52:00,
2013-07-17 00:55:00,80.5,80.5,30.19,SSE,152,10.6,25.7,100,0.01,,SKC,0.01,VWS V14.01,2013-07-17 04:55:00,
2013-07-17 00:56:00,80.3,80.3,30.19,South,181,8.8,25.7,100,0.01,,SKC,0.01,VWS V14.01,2013-07-17 04:56:00,
2013-07-17 00:57:00,80.3,80.3,30.19,South,169,4.4,25.7,100,0.01,,SKC,0.01,VWS V14.01,2013-07-17 04:57:00,
2013-07-17 00:59:00,80.3,80.3,30.18,SSE,167,7.1,25.7,100,0.01,,SKC,0.01,VWS V14.01,2013-07-17 04:59:00,
2013-07-17 01:00:00,80.4,80.4,30.18,SSE,153,4.2,25.7,100,0.01,,SKC,0.01,VWS V14.01,2013-07-17 05:00:00,
2013-07-17 01:01:00,80.4,80.4,30.18,South,174,4.2,9.1,100,0.00,,SKC,0.01,VWS V14.01,2013-07-17 05:01:00,
2013-07-17 01:02:00,80.5,80.5,30.18,North,359,0.0,4.2,100,0.00,,SKC,0.01,VWS V14.01,2013-07-17 05:02:00,
2013-07-17 01:03:00,76.9,76.9,30.18,SSE,166,0.0,0.0,100,0.00,,SKC,0.00,VWS V14.01,2013-07-17 05:03:00,
2013-07-17 01:04:00,76.9,76.9,30.18,SSE,166,0.0,0.0,100,0.00,,SKC,0.00,VWS V14.01,2013-07-17 05:04:00,
2013-07-17 01:05:00,80.4,80.4,30.18,South,191,0.0,0.2,100,0.00,,SKC,0.01,VWS V14.01,2013-07-17 05:05:00,
2013-07-17 01:06:00,80.3,80.3,30.18,North,359,0.0,7.7,100,0.00,,SKC,0.01,VWS V14.01,2013-07-17 05:06:00,
2013-07-17 01:07:00,80.5,80.5,30.18,North,359,3.5,7.3,100,0.00,,SKC,0.01,VWS V14.01,2013-07-17 05:07:00,
2013-07-17 01:10:00,80.3,80.3,30.18,SSE,160,0.0,6.6,100,0.00,,SKC,0.01,VWS V14.01,2013-07-17 05:10:00,
2013-07-17 01:11:00,80.5,80.5,30.18,SSE,166,0.0,8.1,100,0.00,,SKC,0.01,VWS V14.01,2013-07-17 05:11:00,
2013-07-17 01:13:00,80.3,80.3,30.18,SSE,166,0.0,0.0,100,0.00,,SKC,0.01,VWS V14.01,2013-07-17 05:13:00,
2013-07-17 01:15:00,80.2,80.2,30.18,SSE,166,0.0,0.0,100,0.00,,SKC,0.01,VWS V14.01,2013-07-17 05:15:00,
2013-07-17 01:16:00,80.1,80.1,30.18,SSE,166,0.0,0.0,100,0.00,,SKC,0.01,VWS V14.01,2013-07-17 05:16:00,
2013-07-17 01:18:00,80.0,80.0,30.18,SSE,166,0.0,0.0,100,0.00,,SKC,0.01,VWS V14.01,2013-07-17 05:18:00,
2013-07-17 01:20:00,79.9,79.9,30.18,SSE,166,0.0,0.0,100,0.00,,SKC,0.01,VWS V14.01,2013-07-17 05:20:00,
2013-07-17 01:21:00,79.8,79.8,30.18,SSE,166,0.0,0.0,100,0.00,,SKC,0.01,VWS V14.01,2013-07-17 05:21:00,
2013-07-17 01:23:00,79.7,79.7,30.18,SSE,166,0.0,0.0,100,0.00,,SKC,0.01,VWS V14.01,2013-07-17 05:23:00,
2013-07-17 01:25:00,79.4,79.4,30.18,SSE,166,0.0,0.0,100,0.00,,SKC,0.01,VWS V14.01,2013-07-17 05:25:00,
2013-07-17 01:26:00,79.3,79.3,30.18,SSE,166,0.0,0.0,100,0.00,,SKC,0.01,VWS V14.01,2013-07-17 05:26:00,
2013-07-17 01:28:00,79.2,79.2,30.18,SSE,166,0.0,0.0,100,0.00,,SKC,0.01,VWS V14.01,2013-07-17 05:28:00,
2013-07-17 01:30:00,79.0,79.0,30.18,SSE,166,0.0,0.0,100,0.00,,SKC,0.01,VWS V14.01,2013-07-17 05:30:00,
2013-07-17 01:31:00,79.0,79.0,30.18,SSE,166,0.0,0.0,100,0.00,,SKC,0.01,VWS V14.01,2013-07-17 05:31:00,
2013-07-17 01:33:00,78.8,78.8,30.18,SSE,166,0.0,0.0,100,0.00,,SKC,0.01,VWS V14.01,2013-07-17 05:33:00,
2013-07-17 01:35:00,78.5,78.5,30.18,SSE,166,0.0,0.0,100,0.00,,SKC,0.01,VWS V14.01,2013-07-17 05:35:00,
2013-07-17 01:36:00,78.4,78.4,30.18,SSE,166,0.0,0.0,100,0.00,,SKC,0.01,VWS V14.01,2013-07-17 05:36:00,
2013-07-17 01:37:00,78.4,78.4,30.18,SSE,166,0.0,0.0,100,0.00,,SKC,0.01,VWS V14.01,2013-07-17 05:37:00,
2013-07-17 01:39:00,78.2,78.2,30.18,SSE,166,0.0,0.0,100,0.00,,SKC,0.01,VWS V14.01,2013-07-17 05:39:00,
2013-07-17 01:40:00,78.1,78.1,30.18,SSE,166,0.0,0.0,100,0.00,,SKC,0.01,VWS V14.01,2013-07-17 05:40:00,
2013-07-17 01:41:00,78.1,78.1,30.18,SSE,166,0.0,0.0,100,0.00,,SKC,0.01,VWS V14.01,2013-07-17 05:41:00,
2013-07-17 01:42:00,78.1,78.1,30.18,SSE,166,0.0,0.0,100,0.00,,SKC,0.01,VWS V14.01,2013-07-17 05:42:00,
2013-07-17 01:44:00,77.9,77.9,30.18,SSE,166,0.0,0.0,100,0.00,,SKC,0.01,VWS V14.01,2013-07-17 05:44:00,
2013-07-17 01:45:00,77.8,77.8,30.18,SSE,166,0.0,0.0,100,0.00,,SKC,0.01,VWS V14.01,2013-07-17 05:45:00,
2013-07-17 01:46:00,77.8,77.8,30.18,SSE,166,0.0,0.0,100,0.00,,SKC,0.01,VWS V14.01,2013-07-17 05:46:00,
2013-07-17 01:47:00,77.8,77.7,30.18,SSE,166,0.0,0.0,100,0.00,,SKC,0.01,VWS V14.01,2013-07-17 05:47:00,
2013-07-17 01:49:00,77.4,77.4,30.18,SSE,166,0.0,0.0,100,0.00,,SKC,0.01,VWS V14.01,2013-07-17 05:49:00,
2013-07-17 01:50:00,77.5,77.5,30.18,SSE,166,0.0,0.0,100,0.00,,SKC,0.01,VWS V14.01,2013-07-17 05:50:00,
2013-07-17 01:51:00,77.4,77.4,30.18,SSE,166,0.0,0.0,100,0.00,,SKC,0.01,VWS V14.01,2013-07-17 05:51:00,
2013-07-17 01:52:00,77.3,77.3,30.18,SSE,166,0.0,0.0,100,0.00,,SKC,0.01,VWS V14.01,2013-07-17 05:52:00,
2013-07-17 01:54:00,77.2,77.2,30.18,SSE,166,0.0,0.0,100,0.00,,SKC,0.01,VWS V14.01,2013-07-17 05:54:00,
2013-07-17 01:57:00,77.0,77.0,30.18,SSE,166,0.0,0.0,100,0.00,,SKC,0.00,VWS V14.01,2013-07-17 05:57:00,
2013-07-17 01:59:00,76.9,76.9,30.18,SSE,166,0.0,0.0,100,0.00,,SKC,0.00,VWS V14.01,2013-07-17 05:59:00,
2013-07-17 02:00:00,76.8,76.8,30.18,SSE,166,0.0,0.0,100,0.00,,SKC,0.00,VWS V14.01,2013-07-17 06:00:00,
2013-07-17 02:02:00,76.7,76.7,30.18,SSE,166,0.0,0.0,100,0.00,,SKC,0.00,VWS V14.01,2013-07-17 06:02:00,
2013-07-17 02:04:00,76.6,76.7,30.18,SSE,166,0.0,0.0,100,0.00,,SKC,0.00,VWS V14.01,2013-07-17 06:04:00,
2013-07-17 02:05:00,76.6,76.6,30.18,SSE,166,0.0,0.0,100,0.00,,SKC,0.00,VWS V14.01,2013-07-17 06:05:00,
2013-07-17 02:08:00,76.5,76.5,30.18,SSE,166,0.0,0.0,100,0.00,,SKC,0.00,VWS V14.01,2013-07-17 06:08:00,
2013-07-17 02:09:00,76.5,76.5,30.18,SSE,166,0.0,0.0,100,0.00,,SKC,0.00,VWS V14.01,2013-07-17 06:09:00,
2013-07-17 02:10:00,76.5,76.5,30.18,SSE,166,0.0,0.0,100,0.00,,SKC,0.00,VWS V14.01,2013-07-17 06:10:00,
2013-07-17 02:13:00,76.4,76.4,30.18,SSE,166,0.0,0.0,100,0.00,,SKC,0.00,VWS V14.01,2013-07-17 06:13:00,
2013-07-17 02:14:00,76.3,76.3,30.18,SSE,166,0.0,0.0,100,0.00,,SKC,0.00,VWS V14.01,2013-07-17 06:14:00,
2013-07-17 02:15:00,76.3,76.3,30.18,SSE,166,0.0,0.0,100,0.00,,SKC,0.00,VWS V14.01,2013-07-17 06:15:00,
2013-07-17 02:18:00,76.2,76.2,30.18,SSE,166,0.0,0.0,100,0.00,,SKC,0.00,VWS V14.01,2013-07-17 06:18:00,
2013-07-17 02:19:00,76.1,76.1,30.18,SSE,166,0.0,0.0,100,0.00,,SKC,0.00,VWS V14.01,2013-07-17 06:19:00,
2013-07-17 02:20:00,76.1,76.1,30.18,SSE,166,0.0,0.0,100,0.00,,SKC,0.00,VWS V14.01,2013-07-17 06:20:00,
2013-07-17 02:21:00,76.1,76.1,30.18,SSE,166,0.0,0.0,100,0.00,,SKC,0.00,VWS V14.01,2013-07-17 06:21:00,
2013-07-17 02:23:00,76.0,76.0,30.18,SSE,166,0.0,0.0,100,0.00,,SKC,0.00,VWS V14.01,2013-07-17 06:23:00,
2013-07-17 02:25:00,76.0,76.0,30.18,SSE,166,0.0,0.0,100,0.00,,SKC,0.00,VWS V14.01,2013-07-17 06:25:00,
2013-07-17 02:26:00,76.0,76.0,30.18,SSE,166,0.0,0.0,100,0.00,,SKC,0.00,VWS V14.01,2013-07-17 06:26:00,
2013-07-17 02:28:00,75.9,75.9,30.18,SSE,166,0.0,0.0,100,0.00,,SKC,0.00,VWS V14.01,2013-07-17 06:28:00,
2013-07-17 02:30:00,75.8,75.8,30.18,SSE,166,0.0,0.0,100,0.00,,SKC,0.00,VWS V14.01,2013-07-17 06:30:00,
2013-07-17 02:32:00,75.8,75.8,30.18,SSE,166,0.0,0.0,100,0.00,,SKC,0.00,VWS V14.01,2013-07-17 06:32:00,
2013-07-17 02:34:00,75.7,75.7,30.18,SSE,166,0.0,0.0,100,0.00,,SKC,0.00,VWS V14.01,2013-07-17 06:34:00,
2013-07-17 02:35:00,75.7,75.8,30.18,SSE,166,0.0,0.0,100,0.00,,SKC,0.00,VWS V14.01,2013-07-17 06:35:00,
2013-07-17 02:37:00,75.8,75.8,30.18,SSE,166,0.0,0.0,100,0.00,,SKC,0.00,VWS V14.01,2013-07-17 06:37:00,
2013-07-17 02:39:00,75.8,75.8,30.18,SSE,166,0.0,0.0,100,0.00,,SKC,0.00,VWS V14.01,2013-07-17 06:39:00,
2013-07-17 02:40:00,75.7,75.7,30.18,SSE,166,0.0,0.0,100,0.00,,SKC,0.00,VWS V14.01,2013-07-17 06:40:00,
2013-07-17 02:42:00,75.7,75.7,30.18,SSE,166,0.0,0.0,100,0.00,,SKC,0.00,VWS V14.01,2013-07-17 06:42:00,
2013-07-17 02:44:00,75.7,75.7,30.18,SSE,166,0.0,0.0,100,0.00,,SKC,0.00,VWS V14.01,2013-07-17 06:44:00,
2013-07-17 02:45:00,75.7,75.7,30.18,SSE,166,0.0,0.0,100,0.00,,SKC,0.00,VWS V14.01,2013-07-17 06:45:00,
2013-07-17 02:46:00,75.7,75.7,30.18,SSE,166,0.0,0.0,100,0.00,,SKC,0.00,VWS V14.01,2013-07-17 06:46:00,
2013-07-17 02:47:00,75.7,75.7,30.18,SSE,166,0.0,0.0,100,0.00,,SKC,0.00,VWS V14.01,2013-07-17 06:47:00,
2013-07-17 02:49:00,75.7,75.7,30.18,SSE,166,0.0,0.0,100,0.00,,SKC,0.00,VWS V14.01,2013-07-17 06:49:00,
2013-07-17 02:50:00,75.6,75.6,30.18,SSE,166,0.0,0.0,100,0.00,,SKC,0.00,VWS V14.01,2013-07-17 06:50:00,
2013-07-17 02:51:00,75.7,75.7,30.18,SSE,166,0.0,0.0,100,0.00,,SKC,0.00,VWS V14.01,2013-07-17 06:51:00,
2013-07-17 02:52:00,75.6,75.6,30.18,SSE,166,0.0,0.0,100,0.00,,SKC,0.00,VWS V14.01,2013-07-17 06:52:00,
2013-07-17 02:54:00,75.6,75.6,30.18,SSE,166,0.0,0.0,100,0.00,,SKC,0.00,VWS V14.01,2013-07-17 06:54:00,
2013-07-17 02:55:00,75.6,75.6,30.18,SSE,166,0.0,0.0,100,0.00,,SKC,0.00,VWS V14.01,2013-07-17 06:55:00,
2013-07-17 02:56:00,75.6,75.6,30.18,SSE,166,0.0,0.0,100,0.00,,SKC,0.00,VWS V14.01,2013-07-17 06:56:00,
2013-07-17 02:58:00,75.6,75.6,30.18,SSE,166,0.0,0.0,100,0.00,,SKC,0.00,VWS V14.01,2013-07-17 06:58:00,
2013-07-17 02:59:00,75.6,75.6,30.18,SSE,166,0.0,0.0,100,0.00,,SKC,0.00,VWS V14.01,2013-07-17 06:59:00,
2013-07-17 03:00:00,75.6,75.5,30.18,SSE,166,0.0,0.0,100,0.00,,SKC,0.00,VWS V14.01,2013-07-17 07:00:00,
2013-07-17 03:01:00,75.5,75.5,30.18,SSE,166,0.0,0.0,100,0.00,,SKC,0.00,VWS V14.01,2013-07-17 07:01:00,
2013-07-17 03:03:00,75.5,75.5,30.18,SSE,166,0.0,0.0,100,0.00,,SKC,0.00,VWS V14.01,2013-07-17 07:03:00,
2013-07-17 03:04:00,75.5,75.5,30.18,SSE,166,0.0,0.0,100,0.00,,SKC,0.00,VWS V14.01,2013-07-17 07:04:00,
2013-07-17 03:05:00,75.5,75.5,30.18,SSE,166,0.0,0.0,100,0.00,,SKC,0.00,VWS V14.01,2013-07-17 07:05:00,
2013-07-17 03:06:00,75.5,75.5,30.18,SSE,166,0.0,0.0,100,0.00,,SKC,0.00,VWS V14.01,2013-07-17 07:06:00,
2013-07-17 03:08:00,75.4,75.4,30.18,SSE,166,0.0,0.0,100,0.00,,SKC,0.00,VWS V14.01,2013-07-17 07:08:00,
2013-07-17 03:09:00,75.4,75.4,30.18,SSE,166,0.0,0.0,100,0.00,,SKC,0.00,VWS V14.01,2013-07-17 07:09:00,
2013-07-17 03:11:00,75.4,75.4,30.18,SSE,166,0.0,0.0,100,0.00,,SKC,0.00,VWS V14.01,2013-07-17 07:11:00,
2013-07-17 03:13:00,75.4,75.4,30.18,SSE,166,0.0,0.0,100,0.00,,SKC,0.00,VWS V14.01,2013-07-17 07:13:00,
2013-07-17 03:14:00,75.4,75.4,30.18,SSE,166,0.0,0.0,100,0.00,,SKC,0.00,VWS V14.01,2013-07-17 07:14:00,
2013-07-17 03:16:00,75.4,75.4,30.18,SSE,166,0.0,0.0,100,0.00,,SKC,0.00,VWS V14.01,2013-07-17 07:16:00,
2013-07-17 03:18:00,75.4,75.4,30.18,SSE,166,0.0,0.0,100,0.00,,SKC,0.00,VWS V14.01,2013-07-17 07:18:00,
2013-07-17 03:19:00,75.3,75.3,30.18,SSE,166,0.0,0.0,100,0.00,,SKC,0.00,VWS V14.01,2013-07-17 07:19:00,
2013-07-17 03:21:00,75.3,75.4,30.18,SSE,166,0.0,0.0,100,0.00,,SKC,0.00,VWS V14.01,2013-07-17 07:21:00,
2013-07-17 03:23:00,75.4,75.4,30.18,SSE,166,0.0,0.0,100,0.00,,SKC,0.00,VWS V14.01,2013-07-17 07:23:00,
2013-07-17 03:24:00,75.3,75.3,30.18,SSE,166,0.0,0.0,100,0.00,,SKC,0.00,VWS V14.01,2013-07-17 07:24:00,
2013-07-17 03:26:00,75.3,75.3,30.18,SSE,166,0.0,0.0,100,0.00,,SKC,0.00,VWS V14.01,2013-07-17 07:26:00,
2013-07-17 03:27:00,75.4,75.4,30.18,SSE,166,0.0,0.0,100,0.00,,SKC,0.00,VWS V14.01,2013-07-17 07:27:00,
2013-07-17 03:28:00,75.3,75.3,30.18,SSE,166,0.0,0.0,100,0.00,,SKC,0.00,VWS V14.01,2013-07-17 07:28:00,
2013-07-17 03:29:00,75.3,75.3,30.18,SSE,166,0.0,0.0,100,0.00,,SKC,0.00,VWS V14.01,2013-07-17 07:29:00,
2013-07-17 03:31:00,75.3,75.3,30.18,SSE,166,0.0,0.0,100,0.00,,SKC,0.00,VWS V14.01,2013-07-17 07:31:00,
2013-07-17 03:32:00,75.3,75.3,30.18,SSE,166,0.0,0.0,100,0.00,,SKC,0.00,VWS V14.01,2013-07-17 07:32:00,
2013-07-17 03:33:00,75.3,75.3,30.18,SSE,166,0.0,0.0,100,0.00,,SKC,0.00,VWS V14.01,2013-07-17 07:33:00,
2013-07-17 03:34:00,75.3,75.3,30.18,SSE,166,0.0,0.0,100,0.00,,SKC,0.00,VWS V14.01,2013-07-17 07:34:00,
2013-07-17 03:36:00,75.3,75.3,30.18,SSE,166,0.0,0.0,100,0.00,,SKC,0.00,VWS V14.01,2013-07-17 07:36:00,
2013-07-17 03:37:00,75.3,75.3,30.18,SSE,166,0.0,0.0,100,0.00,,SKC,0.00,VWS V14.01,2013-07-17 07:37:00,
2013-07-17 03:38:00,75.2,75.2,30.18,SSE,166,0.0,0.0,100,0.00,,SKC,0.00,VWS V14.01,2013-07-17 07:38:00,
2013-07-17 03:40:00,75.2,75.3,30.18,SSE,166,0.0,0.0,100,0.00,,SKC,0.00,VWS V14.01,2013-07-17 07:40:00,
2013-07-17 03:42:00,75.2,75.2,30.18,SSE,166,0.0,0.0,100,0.00,,SKC,0.00,VWS V14.01,2013-07-17 07:42:00,
2013-07-17 03:44:00,75.2,75.2,30.18,SSE,166,0.0,0.0,100,0.00,,SKC,0.00,VWS V14.01,2013-07-17 07:44:00,
2013-07-17 03:45:00,75.2,75.2,30.18,SSE,166,0.0,0.0,100,0.00,,SKC,0.00,VWS V14.01,2013-07-17 07:45:00,
2013-07-17 03:47:00,75.1,75.1,30.18,SSE,166,0.0,0.0,100,0.00,,SKC,0.00,VWS V14.01,2013-07-17 07:47:00,
2013-07-17 03:48:00,75.1,75.1,30.18,SSE,166,0.0,0.0,100,0.00,,SKC,0.00,VWS V14.01,2013-07-17 07:48:00,
2013-07-17 03:49:00,75.1,75.1,30.18,SSE,166,0.0,0.0,100,0.00,,SKC,0.00,VWS V14.01,2013-07-17 07:49:00,
2013-07-17 03:50:00,75.1,75.1,30.18,SSE,166,0.0,0.0,100,0.00,,SKC,0.00,VWS V14.01,2013-07-17 07:50:00,
2013-07-17 03:52:00,75.1,75.1,30.18,SSE,166,0.0,0.0,100,0.00,,SKC,0.00,VWS V14.01,2013-07-17 07:52:00,
2013-07-17 03:53:00,75.1,75.1,30.18,SSE,166,0.0,0.0,100,0.00,,SKC,0.00,VWS V14.01,2013-07-17 07:53:00,
2013-07-17 03:54:00,75.1,75.1,30.18,SSE,166,0.0,0.0,100,0.00,,SKC,0.00,VWS V14.01,2013-07-17 07:54:00,
2013-07-17 03:55:00,75.2,75.2,30.18,SSE,166,0.0,0.0,100,0.00,,SKC,0.00,VWS V14.01,2013-07-17 07:55:00,
2013-07-17 03:57:00,75.1,75.1,30.18,SSE,166,0.0,0.0,100,0.00,,SKC,0.00,VWS V14.01,2013-07-17 07:57:00,
2013-07-17 03:58:00,75.2,75.2,30.18,SSE,166,0.0,0.0,100,0.00,,SKC,0.00,VWS V14.01,2013-07-17 07:58:00,
2013-07-17 03:59:00,75.1,75.1,30.18,SSE,166,0.0,0.0,100,0.00,,SKC,0.00,VWS V14.01,2013-07-17 07:59:00,
2013-07-17 04:00:00,75.1,75.1,30.18,SSE,166,0.0,0.0,100,0.00,,SKC,0.00,VWS V14.01,2013-07-17 08:00:00,
2013-07-17 04:02:00,75.1,75.1,30.18,SSE,166,0.0,0.0,100,0.00,,SKC,0.00,VWS V14.01,2013-07-17 08:02:00,
2013-07-17 04:03:00,75.1,75.1,30.18,SSE,166,0.0,0.0,100,0.00,,SKC,0.00,VWS V14.01,2013-07-17 08:03:00,
2013-07-17 04:05:00,75.1,75.1,30.18,SSE,166,0.0,0.0,100,0.00,,SKC,0.00,VWS V14.01,2013-07-17 08:05:00,
2013-07-17 04:07:00,75.0,75.0,30.18,SSE,166,0.0,0.0,100,0.00,,SKC,0.00,VWS V14.01,2013-07-17 08:07:00,
2013-07-17 04:08:00,75.1,75.1,30.18,SSE,166,0.0,0.0,100,0.00,,SKC,0.00,VWS V14.01,2013-07-17 08:08:00,
2013-07-17 04:10:00,75.0,75.0,30.18,SSE,166,0.0,0.0,100,0.00,,SKC,0.00,VWS V14.01,2013-07-17 08:10:00,
2013-07-17 04:12:00,75.1,75.1,30.18,SSE,166,0.0,0.0,100,0.00,,SKC,0.00,VWS V14.01,2013-07-17 08:12:00,
2013-07-17 04:13:00,75.1,75.1,30.18,SSE,166,0.0,0.0,100,0.00,,SKC,0.00,VWS V14.01,2013-07-17 08:13:00,
2013-07-17 04:15:00,75.1,75.1,30.18,SSE,166,0.0,0.0,100,0.00,,SKC,0.00,VWS V14.01,2013-07-17 08:15:00,
2013-07-17 04:16:00,75.0,75.0,30.18,SSE,166,0.0,0.0,100,0.00,,SKC,0.00,VWS V14.01,2013-07-17 08:16:00,
2013-07-17 04:17:00,75.0,75.1,30.18,SSE,166,0.0,0.0,100,0.00,,SKC,0.00,VWS V14.01,2013-07-17 08:17:00,
2013-07-17 04:18:00,75.1,75.1,30.18,SSE,166,0.0,0.0,100,0.00,,SKC,0.00,VWS V14.01,2013-07-17 08:18:00,
2013-07-17 04:19:00,75.1,75.1,30.18,SSE,166,0.0,0.0,100,0.00,,SKC,0.00,VWS V14.01,2013-07-17 08:19:00,
2013-07-17 04:20:00,75.0,75.0,30.18,SSE,166,0.0,0.0,100,0.00,,SKC,0.00,VWS V14.01,2013-07-17 08:20:00,
2013-07-17 04:21:00,75.1,75.0,30.18,SSE,166,0.0,0.0,100,0.00,,SKC,0.00,VWS V14.01,2013-07-17 08:21:00,
2013-07-17 04:23:00,75.1,75.1,30.18,SSE,166,0.0,0.0,100,0.00,,SKC,0.00,VWS V14.01,2013-07-17 08:23:00,
2013-07-17 04:24:00,75.0,75.0,30.18,SSE,166,0.0,0.0,100,0.00,,SKC,0.00,VWS V14.01,2013-07-17 08:24:00,
2013-07-17 04:25:00,75.1,75.1,30.18,SSE,166,0.0,0.0,100,0.00,,SKC,0.00,VWS V14.01,2013-07-17 08:25:00,
2013-07-17 04:26:00,75.0,75.0,30.18,SSE,166,0.0,0.0,100,0.00,,SKC,0.00,VWS V14.01,2013-07-17 08:26:00,
2013-07-17 04:28:00,75.0,75.0,30.18,SSE,166,0.0,0.0,100,0.00,,SKC,0.00,VWS V14.01,2013-07-17 08:28:00,
2013-07-17 04:29:00,75.0,75.0,30.18,SSE,166,0.0,0.0,100,0.00,,SKC,0.00,VWS V14.01,2013-07-17 08:29:00,
2013-07-17 04:30:00,75.0,75.0,30.18,SSE,166,0.0,0.0,100,0.00,,SKC,0.00,VWS V14.01,2013-07-17 08:30:00,
2013-07-17 04:31:00,75.0,75.0,30.18,SSE,166,0.0,0.0,100,0.00,,SKC,0.00,VWS V14.01,2013-07-17 08:31:00,
2013-07-17 04:33:00,75.0,75.0,30.18,SSE,166,0.0,0.0,100,0.00,,SKC,0.00,VWS V14.01,2013-07-17 08:33:00,
2013-07-17 04:34:00,75.0,75.0,30.18,SSE,166,0.0,0.0,100,0.00,,SKC,0.00,VWS V14.01,2013-07-17 08:34:00,
2013-07-17 04:35:00,75.0,75.0,30.17,SSE,166,0.0,0.0,100,0.00,,SKC,0.00,VWS V14.01,2013-07-17 08:35:00,
2013-07-17 04:36:00,74.9,74.9,30.18,SSE,166,0.0,0.0,100,0.00,,SKC,0.00,VWS V14.01,2013-07-17 08:36:00,
2013-07-17 04:38:00,74.9,74.9,30.18,SSE,166,0.0,0.0,100,0.00,,SKC,0.00,VWS V14.01,2013-07-17 08:38:00,
2013-07-17 04:39:00,74.9,74.9,30.18,SSE,166,0.0,0.0,100,0.00,,SKC,0.00,VWS V14.01,2013-07-17 08:39:00,
2013-07-17 04:40:00,74.9,74.9,30.18,SSE,166,0.0,0.0,100,0.00,,SKC,0.00,VWS V14.01,2013-07-17 08:40:00,
2013-07-17 04:41:00,74.8,74.8,30.18,SSE,166,0.0,0.0,100,0.00,,SKC,0.00,VWS V14.01,2013-07-17 08:41:00,
2013-07-17 04:43:00,74.8,74.8,30.18,SSE,166,0.0,0.0,100,0.00,,SKC,0.00,VWS V14.01,2013-07-17 08:43:00,
2013-07-17 04:44:00,74.8,74.8,30.17,SSE,166,0.0,0.0,100,0.00,,SKC,0.00,VWS V14.01,2013-07-17 08:44:00,
2013-07-17 04:45:00,74.7,74.7,30.18,SSE,166,0.0,0.0,100,0.00,,SKC,0.00,VWS V14.01,2013-07-17 08:45:00,
2013-07-17 04:47:00,74.8,74.8,30.17,SSE,166,0.0,0.0,100,0.00,,SKC,0.00,VWS V14.01,2013-07-17 08:47:00,
2013-07-17 04:48:00,74.7,74.7,30.17,SSE,166,0.0,0.0,100,0.00,,SKC,0.00,VWS V14.01,2013-07-17 08:48:00,
2013-07-17 04:49:00,74.7,74.7,30.17,SSE,166,0.0,0.0,100,0.00,,SKC,0.00,VWS V14.01,2013-07-17 08:49:00,
2013-07-17 04:51:00,74.7,74.7,30.17,SSE,166,0.0,0.0,100,0.00,,SKC,0.00,VWS V14.01,2013-07-17 08:51:00,
2013-07-17 04:52:00,74.7,74.7,30.17,SSE,166,0.0,0.0,100,0.00,,SKC,0.00,VWS V14.01,2013-07-17 08:52:00,
2013-07-17 04:53:00,74.6,74.6,30.17,SSE,166,0.0,0.0,100,0.00,,SKC,0.00,VWS V14.01,2013-07-17 08:53:00,
2013-07-17 04:54:00,74.6,74.6,30.17,SSE,166,0.0,0.0,100,0.00,,SKC,0.00,VWS V14.01,2013-07-17 08:54:00,
2013-07-17 04:56:00,74.6,74.6,30.17,SSE,166,0.0,0.0,100,0.00,,SKC,0.00,VWS V14.01,2013-07-17 08:56:00,
2013-07-17 04:57:00,74.6,74.6,30.17,SSE,166,0.0,0.0,100,0.00,,SKC,0.00,VWS V14.01,2013-07-17 08:57:00,
2013-07-17 04:58:00,74.5,74.5,30.17,SSE,166,0.0,0.0,100,0.00,,SKC,0.00,VWS V14.01,2013-07-17 08:58:00,
2013-07-17 04:59:00,74.5,74.5,30.17,SSE,166,0.0,0.0,100,0.00,,SKC,0.00,VWS V14.01,2013-07-17 08:59:00,
2013-07-17 05:00:00,74.5,74.5,30.17,SSE,166,0.0,0.0,100,0.00,,SKC,0.00,VWS V14.01,2013-07-17 09:00:00,
2013-07-17 05:01:00,74.4,74.4,30.17,SSE,166,0.0,0.0,100,0.00,,SKC,0.00,VWS V14.01,2013-07-17 09:01:00,
2013-07-17 05:02:00,74.4,74.4,30.17,SSE,166,0.0,0.0,100,0.00,,SKC,0.00,VWS V14.01,2013-07-17 09:02:00,
2013-07-17 05:03:00,74.4,74.4,30.17,SSE,166,0.0,0.0,100,0.00,,SKC,0.00,VWS V14.01,2013-07-17 09:03:00,
2013-07-17 05:04:00,74.4,74.4,30.17,SSE,166,0.0,0.0,100,0.00,,SKC,0.00,VWS V14.01,2013-07-17 09:04:00,
2013-07-17 05:05:00,74.3,74.3,30.17,SSE,166,0.0,0.0,100,0.00,,SKC,0.00,VWS V14.01,2013-07-17 09:05:00,
2013-07-17 05:06:00,74.3,74.3,30.17,SSE,166,0.0,0.0,100,0.00,,SKC,0.00,VWS V14.01,2013-07-17 09:06:00,
2013-07-17 05:07:00,74.3,74.3,30.17,SSE,166,0.0,0.0,100,0.00,,SKC,0.00,VWS V14.01,2013-07-17 09:07:00,
2013-07-17 05:09:00,74.3,74.3,30.18,SSE,166,0.0,0.0,100,0.00,,SKC,0.00,VWS V14.01,2013-07-17 09:09:00,
2013-07-17 05:10:00,74.3,74.3,30.18,SSE,166,0.0,0.0,100,0.00,,SKC,0.00,VWS V14.01,2013-07-17 09:10:00,
2013-07-17 05:11:00,74.3,74.3,30.18,SSE,166,0.0,0.0,100,0.00,,SKC,0.00,VWS V14.01,2013-07-17 09:11:00,
2013-07-17 05:12:00,74.3,74.3,30.18,SSE,166,0.0,0.0,100,0.00,,SKC,0.00,VWS V14.01,2013-07-17 09:12:00,
2013-07-17 05:14:00,74.3,74.3,30.18,SSE,166,0.0,0.0,100,0.00,,SKC,0.00,VWS V14.01,2013-07-17 09:14:00,
2013-07-17 05:15:00,74.3,74.3,30.18,SSE,166,0.0,0.0,100,0.00,,SKC,0.00,VWS V14.01,2013-07-17 09:15:00,
2013-07-17 05:16:00,74.3,74.3,30.18,SSE,166,0.0,0.0,100,0.00,,SKC,0.00,VWS V14.01,2013-07-17 09:16:00,
2013-07-17 05:17:00,74.2,74.2,30.18,SSE,166,0.0,0.0,100,0.00,,SKC,0.00,VWS V14.01,2013-07-17 09:17:00,
2013-07-17 05:19:00,74.3,74.2,30.18,SSE,166,0.0,0.0,100,0.00,,SKC,0.00,VWS V14.01,2013-07-17 09:19:00,
2013-07-17 05:20:00,74.2,74.2,30.18,SSE,166,0.0,0.0,100,0.00,,SKC,0.00,VWS V14.01,2013-07-17 09:20:00,
2013-07-17 05:21:00,74.3,74.2,30.18,SSE,166,0.0,0.0,100,0.00,,SKC,0.00,VWS V14.01,2013-07-17 09:21:00,
2013-07-17 05:22:00,74.2,74.2,30.18,SSE,166,0.0,0.0,100,0.00,,SKC,0.00,VWS V14.01,2013-07-17 09:22:00,
2013-07-17 05:24:00,74.2,74.2,30.18,SSE,166,0.0,0.0,100,0.00,,SKC,0.00,VWS V14.01,2013-07-17 09:24:00,
2013-07-17 05:25:00,74.2,74.2,30.18,SSE,166,0.0,0.0,100,0.00,,SKC,0.00,VWS V14.01,2013-07-17 09:25:00,
2013-07-17 05:27:00,74.2,74.2,30.18,SSE,166,0.0,0.0,100,0.00,,SKC,0.00,VWS V14.01,2013-07-17 09:27:00,
2013-07-17 05:28:00,74.2,74.2,30.18,SSE,166,0.0,0.0,100,0.00,,SKC,0.00,VWS V14.01,2013-07-17 09:28:00,
2013-07-17 05:29:00,74.2,74.2,30.18,SSE,166,0.0,0.0,100,0.00,,SKC,0.00,VWS V14.01,2013-07-17 09:29:00,
2013-07-17 05:30:00,74.1,74.1,30.18,SSE,166,0.0,0.0,100,0.00,,SKC,0.00,VWS V14.01,2013-07-17 09:30:00,
2013-07-17 05:32:00,74.2,74.1,30.18,SSE,166,0.0,0.0,100,0.00,,SKC,0.00,VWS V14.01,2013-07-17 09:32:00,
2013-07-17 05:33:00,74.1,74.1,30.18,SSE,166,0.0,0.0,100,0.00,,SKC,0.00,VWS V14.01,2013-07-17 09:33:00,
2013-07-17 05:34:00,74.1,74.1,30.18,SSE,166,0.0,0.0,100,0.00,,SKC,0.00,VWS V14.01,2013-07-17 09:34:00,
2013-07-17 05:35:00,74.1,74.1,30.18,SSE,166,0.0,0.0,100,0.00,,SKC,0.00,VWS V14.01,2013-07-17 09:35:00,
2013-07-17 05:36:00,74.0,74.0,30.18,SSE,166,0.0,0.0,100,0.00,,SKC,0.00,VWS V14.01,2013-07-17 09:36:00,
2013-07-17 05:37:00,74.0,74.0,30.18,SSE,166,0.0,0.0,100,0.00,,SKC,0.00,VWS V14.01,2013-07-17 09:37:00,
2013-07-17 05:38:00,74.0,74.0,30.18,SSE,166,0.0,0.0,100,0.00,,SKC,0.00,VWS V14.01,2013-07-17 09:38:00,
2013-07-17 05:39:00,73.9,73.9,30.18,SSE,166,0.0,0.0,100,0.00,,SKC,0.00,VWS V14.01,2013-07-17 09:39:00,
2013-07-17 05:40:00,74.0,74.0,30.17,SSE,166,0.0,0.0,100,0.00,,SKC,0.00,VWS V14.01,2013-07-17 09:40:00,
2013-07-17 05:41:00,74.0,74.0,30.17,SSE,166,0.0,0.0,100,0.00,,SKC,0.00,VWS V14.01,2013-07-17 09:41:00,
2013-07-17 05:42:00,73.9,73.9,30.17,SSE,166,0.0,0.0,100,0.00,,SKC,0.00,VWS V14.01,2013-07-17 09:42:00,
2013-07-17 05:43:00,73.9,73.9,30.17,SSE,166,0.0,0.0,100,0.00,,SKC,0.00,VWS V14.01,2013-07-17 09:43:00,
2013-07-17 05:45:00,73.9,73.9,30.18,SSE,166,0.0,0.0,100,0.00,,SKC,0.00,VWS V14.01,2013-07-17 09:45:00,
2013-07-17 05:46:00,73.8,73.8,30.18,SSE,166,0.0,0.0,100,0.00,,SKC,0.00,VWS V14.01,2013-07-17 09:46:00,
2013-07-17 05:47:00,73.9,73.9,30.18,SSE,166,0.0,0.0,100,0.00,,SKC,0.00,VWS V14.01,2013-07-17 09:47:00,
2013-07-17 05:48:00,73.8,73.8,30.18,SSE,166,0.0,0.0,100,0.00,,SKC,0.00,VWS V14.01,2013-07-17 09:48:00,
2013-07-17 05:50:00,73.8,73.8,30.18,SSE,166,0.0,0.0,100,0.00,,SKC,0.00,VWS V14.01,2013-07-17 09:50:00,
2013-07-17 05:51:00,73.8,73.8,30.18,SSE,166,0.0,0.0,100,0.00,,SKC,0.00,VWS V14.01,2013-07-17 09:51:00,
2013-07-17 05:52:00,73.8,73.8,30.18,SSE,166,0.0,0.0,100,0.00,,SKC,0.00,VWS V14.01,2013-07-17 09:52:00,
2013-07-17 05:53:00,73.7,73.7,30.18,SSE,166,0.0,0.0,100,0.00,,SKC,0.00,VWS V14.01,2013-07-17 09:53:00,
2013-07-17 05:55:00,73.7,73.7,30.18,SSE,166,0.0,0.0,100,0.00,,SKC,0.00,VWS V14.01,2013-07-17 09:55:00,
2013-07-17 05:56:00,73.7,73.7,30.18,SSE,166,0.0,0.0,100,0.00,,SKC,0.00,VWS V14.01,2013-07-17 09:56:00,
2013-07-17 05:57:00,73.8,73.8,30.18,SSE,166,0.0,0.0,100,0.00,,SKC,0.00,VWS V14.01,2013-07-17 09:57:00,
2013-07-17 05:59:00,73.6,73.7,30.18,SSE,166,0.0,0.0,100,0.00,,SKC,0.00,VWS V14.01,2013-07-17 09:59:00,
2013-07-17 06:00:00,73.7,73.7,30.18,SSE,166,0.0,0.0,100,0.00,,SKC,0.00,VWS V14.01,2013-07-17 10:00:00,
2013-07-17 06:01:00,73.6,73.6,30.17,SSE,166,0.0,0.0,100,0.00,,SKC,0.00,VWS V14.01,2013-07-17 10:01:00,
2013-07-17 06:02:00,73.6,73.6,30.18,SSE,166,0.0,0.0,100,0.00,,SKC,0.00,VWS V14.01,2013-07-17 10:02:00,
2013-07-17 06:04:00,73.6,73.6,30.17,SSE,166,0.0,0.0,100,0.00,,SKC,0.00,VWS V14.01,2013-07-17 10:04:00,
2013-07-17 06:05:00,73.6,73.6,30.17,SSE,166,0.0,0.0,100,0.00,,SKC,0.00,VWS V14.01,2013-07-17 10:05:00,
2013-07-17 06:06:00,73.6,73.6,30.17,SSE,166,0.0,0.0,100,0.00,,SKC,0.00,VWS V14.01,2013-07-17 10:06:00,
2013-07-17 06:07:00,73.5,73.5,30.17,SSE,166,0.0,0.0,100,0.00,,SKC,0.00,VWS V14.01,2013-07-17 10:07:00,
2013-07-17 06:09:00,73.5,73.5,30.17,SSE,166,0.0,0.0,100,0.00,,SKC,0.00,VWS V14.01,2013-07-17 10:09:00,
2013-07-17 06:10:00,73.5,73.5,30.17,SSE,166,0.0,0.0,100,0.00,,SKC,0.00,VWS V14.01,2013-07-17 10:10:00,
2013-07-17 06:12:00,73.5,73.5,30.17,SSE,166,0.0,0.0,100,0.00,,SKC,0.00,VWS V14.01,2013-07-17 10:12:00,
2013-07-17 06:14:00,73.5,73.5,30.17,SSE,166,0.0,0.0,100,0.00,,SKC,0.00,VWS V14.01,2013-07-17 10:14:00,
2013-07-17 06:15:00,73.4,73.4,30.17,SSE,166,0.0,0.0,100,0.00,,SKC,0.00,VWS V14.01,2013-07-17 10:15:00,
2013-07-17 06:17:00,73.4,73.4,30.17,SSE,166,0.0,0.0,100,0.00,,SKC,0.00,VWS V14.01,2013-07-17 10:17:00,
2013-07-17 06:18:00,73.4,73.4,30.17,SSE,166,0.0,0.0,100,0.00,,SKC,0.00,VWS V14.01,2013-07-17 10:18:00,
2013-07-17 06:19:00,73.4,73.4,30.17,SSE,166,0.0,0.0,100,0.00,,SKC,0.00,VWS V14.01,2013-07-17 10:19:00,
2013-07-17 06:21:00,73.3,73.4,30.18,SSE,166,0.0,0.0,100,0.00,,SKC,0.00,VWS V14.01,2013-07-17 10:21:00,
2013-07-17 06:22:00,73.4,73.4,30.18,SSE,166,0.0,0.0,100,0.00,,SKC,0.00,VWS V14.01,2013-07-17 10:22:00,
2013-07-17 06:23:00,73.4,73.4,30.18,SSE,166,0.0,0.0,100,0.00,,SKC,0.00,VWS V14.01,2013-07-17 10:23:00,
2013-07-17 06:24:00,73.3,73.3,30.17,SSE,166,0.0,0.0,100,0.00,,SKC,0.00,VWS V14.01,2013-07-17 10:24:00,
2013-07-17 06:26:00,73.4,73.4,30.18,SSE,166,0.0,0.0,100,0.00,,SKC,0.00,VWS V14.01,2013-07-17 10:26:00,
2013-07-17 06:27:00,73.3,73.3,30.18,SSE,166,0.0,0.0,100,0.00,,SKC,0.00,VWS V14.01,2013-07-17 10:27:00,
2013-07-17 06:28:00,73.3,73.3,30.18,SSE,166,0.0,0.0,100,0.00,,SKC,0.00,VWS V14.01,2013-07-17 10:28:00,
2013-07-17 06:29:00,73.4,73.3,30.18,SSE,166,0.0,0.0,100,0.00,,SKC,0.00,VWS V14.01,2013-07-17 10:29:00,
2013-07-17 06:31:00,73.3,73.3,30.18,SSE,166,0.0,0.0,100,0.00,,SKC,0.00,VWS V14.01,2013-07-17 10:31:00,
2013-07-17 06:32:00,73.3,73.3,30.18,SSE,166,0.0,0.0,100,0.00,,SKC,0.00,VWS V14.01,2013-07-17 10:32:00,
2013-07-17 06:33:00,73.3,73.3,30.18,SSE,166,0.0,0.0,100,0.00,,SKC,0.00,VWS V14.01,2013-07-17 10:33:00,
2013-07-17 06:34:00,73.3,73.3,30.18,SSE,166,0.0,0.0,100,0.00,,SKC,0.00,VWS V14.01,2013-07-17 10:34:00,
2013-07-17 06:36:00,73.2,73.2,30.18,SSE,166,0.0,0.0,100,0.00,,SKC,0.00,VWS V14.01,2013-07-17 10:36:00,
2013-07-17 06:37:00,73.3,73.3,30.18,SSE,166,0.0,0.0,100,0.00,,SKC,0.00,VWS V14.01,2013-07-17 10:37:00,
2013-07-17 06:39:00,73.3,73.3,30.18,SSE,166,0.0,0.0,100,0.00,,SKC,0.00,VWS V14.01,2013-07-17 10:39:00,
2013-07-17 06:40:00,73.2,73.2,30.18,SSE,166,0.0,0.0,100,0.00,,SKC,0.00,VWS V14.01,2013-07-17 10:40:00,
2013-07-17 06:41:00,73.3,73.3,30.18,SSE,166,0.0,0.0,100,0.00,,SKC,0.00,VWS V14.01,2013-07-17 10:41:00,
2013-07-17 06:42:00,73.3,73.3,30.18,SSE,166,0.0,0.0,100,0.00,,SKC,0.00,VWS V14.01,2013-07-17 10:42:00,
2013-07-17 06:43:00,73.3,73.3,30.18,SSE,166,0.0,0.0,100,0.00,,SKC,0.00,VWS V14.01,2013-07-17 10:43:00,
2013-07-17 06:44:00,73.2,73.2,30.18,SSE,166,0.0,0.0,100,0.00,,SKC,0.00,VWS V14.01,2013-07-17 10:44:00,
2013-07-17 06:45:00,73.2,73.2,30.18,SSE,166,0.0,0.0,100,0.00,,SKC,0.00,VWS V14.01,2013-07-17 10:45:00,
2013-07-17 06:47:00,73.2,73.2,30.18,SSE,166,0.0,0.0,100,0.00,,SKC,0.00,VWS V14.01,2013-07-17 10:47:00,
2013-07-17 06:48:00,73.2,73.2,30.18,SSE,166,0.0,0.0,100,0.00,,SKC,0.00,VWS V14.01,2013-07-17 10:48:00,
2013-07-17 06:49:00,73.2,73.2,30.18,SSE,166,0.0,0.0,100,0.00,,SKC,0.00,VWS V14.01,2013-07-17 10:49:00,
2013-07-17 06:50:00,73.2,73.2,30.18,SSE,166,0.0,0.0,100,0.00,,SKC,0.00,VWS V14.01,2013-07-17 10:50:00,
2013-07-17 06:52:00,73.2,73.2,30.18,SSE,166,0.0,0.0,100,0.00,,SKC,0.00,VWS V14.01,2013-07-17 10:52:00,
2013-07-17 06:53:00,73.2,73.2,30.18,SSE,166,0.0,0.0,100,0.00,,SKC,0.00,VWS V14.01,2013-07-17 10:53:00,
2013-07-17 06:54:00,73.2,73.2,30.18,SSE,166,0.0,0.0,100,0.00,,SKC,0.00,VWS V14.01,2013-07-17 10:54:00,
2013-07-17 06:55:00,73.2,73.2,30.18,SSE,166,0.0,0.0,100,0.00,,SKC,0.00,VWS V14.01,2013-07-17 10:55:00,
2013-07-17 06:57:00,73.1,73.1,30.18,SSE,166,0.0,0.0,100,0.00,,SKC,0.00,VWS V14.01,2013-07-17 10:57:00,
2013-07-17 06:58:00,73.2,73.2,30.17,SSE,166,0.0,0.0,100,0.00,,SKC,0.00,VWS V14.01,2013-07-17 10:58:00,
2013-07-17 06:59:00,73.2,73.2,30.17,SSE,166,0.0,0.0,100,0.00,,SKC,0.00,VWS V14.01,2013-07-17 10:59:00,
2013-07-17 07:01:00,73.1,73.1,30.18,SSE,166,0.0,0.0,100,0.00,,SKC,0.00,VWS V14.01,2013-07-17 11:01:00,
2013-07-17 07:02:00,73.1,73.1,30.18,SSE,166,0.0,0.0,100,0.00,,SKC,0.00,VWS V14.01,2013-07-17 11:02:00,
2013-07-17 07:03:00,73.1,73.1,30.18,SSE,166,0.0,0.0,100,0.00,,SKC,0.00,VWS V14.01,2013-07-17 11:03:00,
2013-07-17 07:04:00,73.2,73.2,30.18,SSE,166,0.0,0.0,100,0.00,,SKC,0.00,VWS V14.01,2013-07-17 11:04:00,
2013-07-17 07:06:00,73.1,73.1,30.18,SSE,166,0.0,0.0,100,0.00,,SKC,0.00,VWS V14.01,2013-07-17 11:06:00,
2013-07-17 07:07:00,73.1,73.1,30.18,SSE,166,0.0,0.0,100,0.00,,SKC,0.00,VWS V14.01,2013-07-17 11:07:00,
2013-07-17 07:08:00,73.1,73.1,30.18,SSE,166,0.0,0.0,100,0.00,,SKC,0.00,VWS V14.01,2013-07-17 11:08:00,
2013-07-17 07:09:00,73.0,73.0,30.18,SSE,166,0.0,0.0,100,0.00,,SKC,0.00,VWS V14.01,2013-07-17 11:09:00,
2013-07-17 07:11:00,73.0,73.0,30.18,SSE,166,0.0,0.0,100,0.00,,SKC,0.00,VWS V14.01,2013-07-17 11:11:00,
2013-07-17 07:13:00,73.0,73.0,30.18,SSE,166,0.0,0.0,100,0.00,,SKC,0.00,VWS V14.01,2013-07-17 11:13:00,
2013-07-17 07:14:00,73.0,73.0,30.17,SSE,166,0.0,0.0,100,0.00,,SKC,0.00,VWS V14.01,2013-07-17 11:14:00,
2013-07-17 07:16:00,73.0,73.0,30.18,SSE,166,0.0,0.0,100,0.00,,SKC,0.00,VWS V14.01,2013-07-17 11:16:00,
2013-07-17 07:18:00,73.0,73.0,30.18,SSE,166,0.0,0.0,100,0.00,,SKC,0.00,VWS V14.01,2013-07-17 11:18:00,
2013-07-17 07:19:00,72.9,72.9,30.17,SSE,166,0.0,0.0,100,0.00,,SKC,0.00,VWS V14.01,2013-07-17 11:19:00,
2013-07-17 07:20:00,72.9,73.0,30.17,SSE,166,0.0,0.0,100,0.00,,SKC,0.00,VWS V14.01,2013-07-17 11:20:00,
2013-07-17 07:21:00,73.0,73.0,30.18,SSE,166,0.0,0.0,100,0.00,,SKC,0.00,VWS V14.01,2013-07-17 11:21:00,
2013-07-17 07:23:00,73.0,73.0,30.18,SSE,166,0.0,0.0,100,0.00,,SKC,0.00,VWS V14.01,2013-07-17 11:23:00,
2013-07-17 07:25:00,73.0,73.0,30.18,SSE,166,0.0,0.0,100,0.00,,SKC,0.00,VWS V14.01,2013-07-17 11:25:00,
2013-07-17 07:26:00,73.0,73.0,30.18,SSE,166,0.0,0.0,100,0.00,,SKC,0.00,VWS V14.01,2013-07-17 11:26:00,
2013-07-17 07:28:00,73.1,73.1,30.18,SSE,166,0.0,0.0,100,0.00,,SKC,0.00,VWS V14.01,2013-07-17 11:28:00,
2013-07-17 07:29:00,73.0,73.0,30.17,SSE,166,0.0,0.0,100,0.00,,SKC,0.00,VWS V14.01,2013-07-17 11:29:00,
2013-07-17 07:30:00,73.1,73.1,30.18,SSE,166,0.0,0.0,100,0.00,,SKC,0.00,VWS V14.01,2013-07-17 11:30:00,
2013-07-17 07:31:00,73.1,73.1,30.18,SSE,166,0.0,0.0,100,0.00,,SKC,0.00,VWS V14.01,2013-07-17 11:31:00,
2013-07-17 07:34:00,73.2,73.2,30.18,SSE,166,0.0,0.0,100,0.00,,SKC,0.00,VWS V14.01,2013-07-17 11:34:00,
2013-07-17 07:35:00,73.2,73.2,30.18,SSE,166,0.0,0.0,100,0.00,,SKC,0.00,VWS V14.01,2013-07-17 11:35:00,
2013-07-17 07:36:00,73.2,73.2,30.18,SSE,166,0.0,0.0,100,0.00,,SKC,0.00,VWS V14.01,2013-07-17 11:36:00,
2013-07-17 07:39:00,73.3,73.3,30.18,SSE,166,0.0,0.0,100,0.00,,SKC,0.00,VWS V14.01,2013-07-17 11:39:00,
2013-07-17 07:40:00,73.4,73.4,30.18,SSE,166,0.0,0.0,100,0.00,,SKC,0.00,VWS V14.01,2013-07-17 11:40:00,
2013-07-17 07:41:00,73.4,73.4,30.18,SSE,166,0.0,0.0,100,0.00,,SKC,0.00,VWS V14.01,2013-07-17 11:41:00,
2013-07-17 07:44:00,73.5,73.5,30.18,SSE,166,0.0,0.0,100,0.00,,SKC,0.00,VWS V14.01,2013-07-17 11:44:00,
2013-07-17 07:45:00,73.5,73.5,30.18,SSE,166,0.0,0.0,100,0.00,,SKC,0.00,VWS V14.01,2013-07-17 11:45:00,
2013-07-17 07:46:00,73.5,73.6,30.18,SSE,166,0.0,0.0,100,0.00,,SKC,0.00,VWS V14.01,2013-07-17 11:46:00,
2013-07-17 07:49:00,73.7,73.7,30.19,SSE,166,0.0,0.0,100,0.00,,SKC,0.00,VWS V14.01,2013-07-17 11:49:00,
2013-07-17 07:50:00,73.8,73.8,30.18,SSE,166,0.0,0.0,100,0.00,,SKC,0.00,VWS V14.01,2013-07-17 11:50:00,
2013-07-17 07:51:00,73.8,73.8,30.19,SSE,166,0.0,0.0,100,0.00,,SKC,0.00,VWS V14.01,2013-07-17 11:51:00,
2013-07-17 07:52:00,73.8,73.8,30.18,SSE,166,0.0,0.0,100,0.00,,SKC,0.00,VWS V14.01,2013-07-17 11:52:00,
2013-07-17 07:54:00,73.9,73.9,30.19,SSE,166,0.0,0.0,100,0.00,,SKC,0.00,VWS V14.01,2013-07-17 11:54:00,
2013-07-17 07:56:00,74.0,74.0,30.19,SSE,166,0.0,0.0,100,0.00,,SKC,0.00,VWS V14.01,2013-07-17 11:56:00,
2013-07-17 07:57:00,74.0,74.0,30.19,SSE,166,0.0,0.0,100,0.00,,SKC,0.00,VWS V14.01,2013-07-17 11:57:00,
2013-07-17 07:59:00,74.1,74.1,30.19,SSE,166,0.0,0.0,100,0.00,,SKC,0.00,VWS V14.01,2013-07-17 11:59:00,
2013-07-17 08:00:00,74.1,74.1,30.19,SSE,166,0.0,0.0,100,0.00,,SKC,0.00,VWS V14.01,2013-07-17 12:00:00,
2013-07-17 08:01:00,74.2,74.2,30.19,SSE,166,0.0,0.0,100,0.00,,SKC,0.00,VWS V14.01,2013-07-17 12:01:00,
2013-07-17 08:02:00,74.2,74.2,30.18,SSE,166,0.0,0.0,100,0.00,,SKC,0.00,VWS V14.01,2013-07-17 12:02:00,
2013-07-17 08:05:00,74.4,74.4,30.19,SSE,166,0.0,0.0,100,0.00,,SKC,0.00,VWS V14.01,2013-07-17 12:05:00,
2013-07-17 08:06:00,74.5,74.5,30.19,SSE,166,0.0,0.0,100,0.00,,SKC,0.00,VWS V14.01,2013-07-17 12:06:00,
2013-07-17 08:07:00,74.5,74.5,30.19,SSE,166,0.0,0.0,100,0.00,,SKC,0.00,VWS V14.01,2013-07-17 12:07:00,
2013-07-17 08:10:00,74.7,74.7,30.19,SSE,166,0.0,0.0,100,0.00,,SKC,0.00,VWS V14.01,2013-07-17 12:10:00,
2013-07-17 08:11:00,74.9,74.8,30.19,SSE,166,0.0,0.0,100,0.00,,SKC,0.00,VWS V14.01,2013-07-17 12:11:00,
2013-07-17 08:12:00,74.9,74.9,30.20,SSE,166,0.0,0.0,100,0.00,,SKC,0.00,VWS V14.01,2013-07-17 12:12:00,
2013-07-17 08:15:00,75.0,75.0,30.20,SSE,166,0.0,0.0,100,0.00,,SKC,0.00,VWS V14.01,2013-07-17 12:15:00,
2013-07-17 08:16:00,75.1,75.1,30.20,South,191,0.0,5.0,100,0.00,,SKC,0.00,VWS V14.01,2013-07-17 12:16:00,
2013-07-17 08:17:00,75.2,75.2,30.20,South,191,0.0,5.0,100,0.00,,SKC,0.00,VWS V14.01,2013-07-17 12:17:00,
2013-07-17 08:18:00,75.2,75.2,30.20,South,191,0.0,5.0,100,0.00,,SKC,0.00,VWS V14.01,2013-07-17 12:18:00,
2013-07-17 08:20:00,75.3,75.3,30.20,South,191,0.0,5.0,100,0.00,,SKC,0.00,VWS V14.01,2013-07-17 12:20:00,
2013-07-17 08:21:00,75.4,75.4,30.20,South,191,0.0,5.0,100,0.00,,SKC,0.00,VWS V14.01,2013-07-17 12:21:00,
2013-07-17 08:22:00,75.4,75.4,30.20,South,191,0.0,5.0,100,0.00,,SKC,0.00,VWS V14.01,2013-07-17 12:22:00,
2013-07-17 08:23:00,75.4,75.4,30.20,South,191,0.0,5.0,100,0.00,,SKC,0.00,VWS V14.01,2013-07-17 12:23:00,
2013-07-17 08:25:00,75.6,75.6,30.20,South,191,0.0,5.0,100,0.00,,SKC,0.00,VWS V14.01,2013-07-17 12:25:00,
2013-07-17 08:26:00,75.7,75.7,30.20,SSE,165,0.0,8.8,100,0.00,,SKC,0.00,VWS V14.01,2013-07-17 12:26:00,
2013-07-17 08:27:00,75.7,75.8,30.20,SSE,165,0.0,8.8,100,0.00,,SKC,0.00,VWS V14.01,2013-07-17 12:27:00,
2013-07-17 08:28:00,75.8,75.9,30.20,South,191,0.0,8.8,100,0.00,,SKC,0.00,VWS V14.01,2013-07-17 12:28:00,
2013-07-17 08:30:00,76.0,76.0,30.20,South,191,0.0,8.8,100,0.00,,SKC,0.00,VWS V14.01,2013-07-17 12:30:00,
2013-07-17 08:32:00,76.0,76.0,30.20,South,191,0.0,8.8,100,0.00,,SKC,0.00,VWS V14.01,2013-07-17 12:32:00,
2013-07-17 08:34:00,76.1,76.1,30.20,South,191,0.0,8.8,100,0.00,,SKC,0.00,VWS V14.01,2013-07-17 12:34:00,
2013-07-17 08:35:00,76.2,76.2,30.20,South,180,0.0,8.8,100,0.00,,SKC,0.00,VWS V14.01,2013-07-17 12:35:00,
2013-07-17 08:37:00,76.3,76.3,30.20,SSE,160,0.0,8.8,100,0.00,,SKC,0.00,VWS V14.01,2013-07-17 12:37:00,
2013-07-17 08:38:00,76.3,76.3,30.20,SSE,160,0.0,8.8,100,0.00,,SKC,0.00,VWS V14.01,2013-07-17 12:38:00,
2013-07-17 08:39:00,76.3,76.3,30.20,North,359,0.0,8.8,100,0.00,,SKC,0.00,VWS V14.01,2013-07-17 12:39:00,
2013-07-17 08:40:00,76.3,76.3,30.20,South,176,0.0,8.8,100,0.00,,SKC,0.00,VWS V14.01,2013-07-17 12:40:00,
2013-07-17 08:42:00,76.4,76.4,30.20,South,176,0.0,8.8,100,0.00,,SKC,0.00,VWS V14.01,2013-07-17 12:42:00,
2013-07-17 08:43:00,76.5,76.5,30.20,North,359,1.3,8.8,100,0.00,,SKC,0.00,VWS V14.01,2013-07-17 12:43:00,
2013-07-17 08:44:00,76.7,76.7,30.20,South,186,0.0,9.6,100,0.00,,SKC,0.00,VWS V14.01,2013-07-17 12:44:00,
2013-07-17 08:45:00,76.7,76.7,30.20,South,186,0.0,9.6,100,0.00,,SKC,0.00,VWS V14.01,2013-07-17 12:45:00,
2013-07-17 08:47:00,76.9,76.9,30.20,SSE,162,0.0,9.6,100,0.00,,SKC,0.00,VWS V14.01,2013-07-17 12:47:00,
2013-07-17 08:48:00,76.9,76.9,30.20,South,170,0.0,9.6,100,0.00,,SKC,0.00,VWS V14.01,2013-07-17 12:48:00,
2013-07-17 08:49:00,76.9,76.9,30.20,South,170,0.0,9.6,100,0.00,,SKC,0.00,VWS V14.01,2013-07-17 12:49:00,
2013-07-17 08:50:00,77.0,77.0,30.20,South,170,0.0,9.6,100,0.00,,SKC,0.00,VWS V14.01,2013-07-17 12:50:00,
2013-07-17 08:51:00,77.0,77.0,30.20,South,170,0.0,9.6,100,0.01,,SKC,0.01,VWS V14.01,2013-07-17 12:51:00,
2013-07-17 08:52:00,77.1,77.1,30.20,South,170,0.0,9.6,100,0.01,,SKC,0.01,VWS V14.01,2013-07-17 12:52:00,
2013-07-17 08:53:00,77.1,77.1,30.20,South,170,0.0,9.6,100,0.01,,SKC,0.01,VWS V14.01,2013-07-17 12:53:00,
2013-07-17 08:54:00,77.1,77.1,30.20,South,170,0.0,9.6,100,0.01,,SKC,0.01,VWS V14.01,2013-07-17 12:54:00,
2013-07-17 08:56:00,77.3,77.3,30.20,South,170,0.0,9.6,100,0.01,,SKC,0.01,VWS V14.01,2013-07-17 12:56:00,
2013-07-17 08:57:00,77.4,77.4,30.21,North,359,0.0,9.6,100,0.01,,SKC,0.01,VWS V14.01,2013-07-17 12:57:00,
2013-07-17 08:58:00,77.4,77.4,30.21,North,359,0.0,9.6,100,0.01,,SKC,0.01,VWS V14.01,2013-07-17 12:58:00,
2013-07-17 08:59:00,77.5,77.5,30.21,SSE,155,3.3,9.6,100,0.01,,SKC,0.01,VWS V14.01,2013-07-17 12:59:00,
2013-07-17 09:01:00,77.5,77.5,30.21,South,177,6.3,9.6,100,0.01,,SKC,0.01,VWS V14.01,2013-07-17 13:01:00,
2013-07-17 09:02:00,77.7,77.7,30.21,South,174,0.0,9.6,100,0.01,,SKC,0.01,VWS V14.01,2013-07-17 13:02:00,
2013-07-17 09:03:00,77.8,77.8,30.20,SSE,163,0.0,9.6,100,0.01,,SKC,0.01,VWS V14.01,2013-07-17 13:03:00,
2013-07-17 09:04:00,77.7,77.7,30.20,SSE,163,0.0,9.6,100,0.01,,SKC,0.01,VWS V14.01,2013-07-17 13:04:00,
2013-07-17 09:06:00,77.8,77.8,30.21,SSE,163,0.0,9.6,100,0.01,,SKC,0.01,VWS V14.01,2013-07-17 13:06:00,
2013-07-17 09:07:00,77.8,77.8,30.21,SSE,163,0.0,9.6,100,0.01,,SKC,0.01,VWS V14.01,2013-07-17 13:07:00,
2013-07-17 09:08:00,77.8,77.8,30.21,South,170,3.1,9.6,100,0.01,,SKC,0.01,VWS V14.01,2013-07-17 13:08:00,
2013-07-17 09:09:00,78.0,78.0,30.21,SSE,163,1.7,9.6,100,0.01,,SKC,0.01,VWS V14.01,2013-07-17 13:09:00,
2013-07-17 09:11:00,78.1,78.1,30.21,SSW,208,3.2,9.6,100,0.01,,SKC,0.01,VWS V14.01,2013-07-17 13:11:00,
2013-07-17 09:12:00,78.2,78.2,30.21,South,184,0.0,9.6,100,0.01,,SKC,0.01,VWS V14.01,2013-07-17 13:12:00,
2013-07-17 09:13:00,78.3,78.3,30.20,South,184,1.9,9.6,100,0.01,,SKC,0.01,VWS V14.01,2013-07-17 13:13:00,
2013-07-17 09:15:00,78.4,78.4,30.20,SSE,152,3.4,9.6,100,0.01,,SKC,0.01,VWS V14.01,2013-07-17 13:15:00,
2013-07-17 09:16:00,78.7,78.7,30.21,South,170,0.0,9.6,100,0.01,,SKC,0.01,VWS V14.01,2013-07-17 13:16:00,
2013-07-17 09:17:00,78.7,78.7,30.21,SSE,159,0.0,9.6,100,0.01,,SKC,0.01,VWS V14.01,2013-07-17 13:17:00,
2013-07-17 09:18:00,78.8,78.8,30.21,SSE,158,2.7,9.6,100,0.01,,SKC,0.01,VWS V14.01,2013-07-17 13:18:00,
2013-07-17 09:20:00,79.0,79.0,30.21,SSE,167,2.8,9.6,100,0.01,,SKC,0.01,VWS V14.01,2013-07-17 13:20:00,
2013-07-17 09:21:00,79.1,79.1,30.21,SSE,167,0.0,9.6,100,0.01,,SKC,0.01,VWS V14.01,2013-07-17 13:21:00,
2013-07-17 09:22:00,79.2,79.2,30.21,SSE,150,0.0,9.6,100,0.01,,SKC,0.01,VWS V14.01,2013-07-17 13:22:00,
2013-07-17 09:24:00,79.3,79.3,30.21,SSE,162,8.5,9.6,100,0.01,,SKC,0.01,VWS V14.01,2013-07-17 13:24:00,
2013-07-17 09:25:00,79.4,79.4,30.21,South,188,1.4,9.6,100,0.01,,SKC,0.01,VWS V14.01,2013-07-17 13:25:00,
2013-07-17 09:26:00,79.7,79.7,30.21,SW,217,4.5,9.8,100,0.01,,SKC,0.01,VWS V14.01,2013-07-17 13:26:00,
2013-07-17 09:27:00,79.7,79.7,30.21,South,181,5.1,9.8,100,0.01,,SKC,0.01,VWS V14.01,2013-07-17 13:27:00,
2013-07-17 09:30:00,79.8,79.8,30.21,South,190,1.1,9.8,100,0.01,,SKC,0.01,VWS V14.01,2013-07-17 13:30:00,
2013-07-17 09:31:00,79.8,79.8,30.21,North,359,3.8,9.8,100,0.01,,SKC,0.01,VWS V14.01,2013-07-17 13:31:00,
2013-07-17 09:32:00,79.8,79.8,30.21,SSW,200,8.6,9.8,100,0.01,,SKC,0.01,VWS V14.01,2013-07-17 13:32:00,
2013-07-17 09:33:00,79.9,79.9,30.21,North,359,0.2,9.8,100,0.01,,SKC,0.01,VWS V14.01,2013-07-17 13:33:00,
2013-07-17 09:35:00,80.0,80.0,30.21,SW,217,3.5,9.8,100,0.01,,SKC,0.01,VWS V14.01,2013-07-17 13:35:00,
2013-07-17 09:36:00,80.0,80.0,30.21,SSE,160,2.8,9.8,100,0.01,,SKC,0.01,VWS V14.01,2013-07-17 13:36:00,
2013-07-17 09:37:00,80.0,80.0,30.22,South,188,5.6,9.8,100,0.01,,SKC,0.01,VWS V14.01,2013-07-17 13:37:00,
2013-07-17 09:38:00,80.1,80.1,30.21,South,188,0.0,9.8,100,0.01,,SKC,0.01,VWS V14.01,2013-07-17 13:38:00,
2013-07-17 09:40:00,80.1,80.1,30.21,North,359,0.0,9.8,100,0.01,,SKC,0.01,VWS V14.01,2013-07-17 13:40:00,
2013-07-17 09:41:00,80.2,80.2,30.21,South,174,1.3,9.8,100,0.01,,SKC,0.01,VWS V14.01,2013-07-17 13:41:00,
2013-07-17 09:42:00,80.2,80.2,30.21,South,173,0.0,9.8,100,0.01,,SKC,0.01,VWS V14.01,2013-07-17 13:42:00,
2013-07-17 09:43:00,80.3,80.3,30.21,South,190,2.2,9.8,100,0.01,,SKC,0.01,VWS V14.01,2013-07-17 13:43:00,
2013-07-17 09:45:00,80.4,80.4,30.21,SSE,153,7.0,9.8,100,0.01,,SKC,0.01,VWS V14.01,2013-07-17 13:45:00,
2013-07-17 09:46:00,80.5,80.5,30.21,SSE,158,0.0,9.8,100,0.01,,SKC,0.01,VWS V14.01,2013-07-17 13:46:00,
2013-07-17 09:48:00,80.4,80.4,30.21,SSE,156,0.3,9.8,100,0.01,,SKC,0.01,VWS V14.01,2013-07-17 13:48:00,
2013-07-17 09:50:00,80.5,80.5,30.21,North,359,0.0,9.8,100,0.01,,SKC,0.01,VWS V14.01,2013-07-17 13:50:00,
2013-07-17 09:52:00,80.3,80.3,30.21,North,359,0.0,9.8,100,0.01,,SKC,0.01,VWS V14.01,2013-07-17 13:52:00,
2013-07-17 09:53:00,80.4,80.4,30.21,South,183,5.7,9.8,100,0.01,,SKC,0.01,VWS V14.01,2013-07-17 13:53:00,
2013-07-17 09:54:00,80.5,80.5,30.21,South,190,8.8,9.8,100,0.01,,SKC,0.01,VWS V14.01,2013-07-17 13:54:00,
2013-07-17 09:55:00,80.5,80.5,30.21,SSE,150,2.2,9.8,100,0.01,,SKC,0.01,VWS V14.01,2013-07-17 13:55:00,
2013-07-17 09:57:00,80.7,80.7,30.21,SSE,149,3.7,9.8,100,0.01,,SKC,0.01,VWS V14.01,2013-07-17 13:57:00,
2013-07-17 09:59:00,80.8,80.8,30.21,SSW,197,4.2,9.8,100,0.01,,SKC,0.01,VWS V14.01,2013-07-17 13:59:00,
2013-07-17 10:00:00,80.8,80.8,30.21,SSE,152,0.0,9.8,100,0.01,,SKC,0.01,VWS V14.01,2013-07-17 14:00:00,
2013-07-17 10:01:00,80.9,80.9,30.21,South,173,0.5,9.8,100,0.01,,SKC,0.01,VWS V14.01,2013-07-17 14:01:00,
2013-07-17 10:02:00,80.8,80.6,30.21,South,172,8.4,12.5,99,0.01,,SKC,0.01,VWS V14.01,2013-07-17 14:02:00,
2013-07-17 10:04:00,80.7,80.6,30.21,South,176,2.9,12.5,100,0.01,,SKC,0.01,VWS V14.01,2013-07-17 14:04:00,
2013-07-17 10:05:00,80.8,80.7,30.21,South,170,4.6,12.5,100,0.01,,SKC,0.01,VWS V14.01,2013-07-17 14:05:00,
2013-07-17 10:06:00,80.8,80.7,30.21,North,359,5.2,12.5,100,0.01,,SKC,0.01,VWS V14.01,2013-07-17 14:06:00,
2013-07-17 10:07:00,80.9,80.8,30.20,SSE,159,3.8,12.5,100,0.01,,SKC,0.01,VWS V14.01,2013-07-17 14:07:00,
2013-07-17 10:09:00,81.0,80.8,30.21,SSE,159,0.0,12.5,100,0.01,,SKC,0.01,VWS V14.01,2013-07-17 14:09:00,
2013-07-17 10:10:00,81.0,80.9,30.21,North,359,0.0,12.5,100,0.01,,SKC,0.01,VWS V14.01,2013-07-17 14:10:00,
2013-07-17 10:11:00,81.1,80.9,30.21,North,359,9.6,12.5,100,0.01,,SKC,0.01,VWS V14.01,2013-07-17 14:11:00,
2013-07-17 10:12:00,81.0,80.8,30.21,North,359,0.2,12.5,99,0.01,,SKC,0.01,VWS V14.01,2013-07-17 14:12:00,
2013-07-17 10:14:00,81.1,81.0,30.21,North,359,0.7,12.5,100,0.01,,SKC,0.01,VWS V14.01,2013-07-17 14:14:00,
2013-07-17 10:15:00,81.2,81.1,30.21,North,359,1.4,12.5,100,0.01,,SKC,0.01,VWS V14.01,2013-07-17 14:15:00,
2013-07-17 10:16:00,81.2,81.1,30.20,SE,136,2.2,12.5,100,0.01,,SKC,0.01,VWS V14.01,2013-07-17 14:16:00,
2013-07-17 10:17:00,81.4,81.3,30.21,South,169,6.8,12.5,100,0.01,,SKC,0.01,VWS V14.01,2013-07-17 14:17:00,
2013-07-17 10:19:00,81.5,81.3,30.21,North,359,5.5,12.5,99,0.01,,SKC,0.01,VWS V14.01,2013-07-17 14:19:00,
2013-07-17 10:20:00,81.4,81.2,30.21,SSE,165,8.6,12.5,99,0.01,,SKC,0.01,VWS V14.01,2013-07-17 14:20:00,
2013-07-17 10:21:00,81.4,81.1,30.21,South,176,1.2,12.5,99,0.01,,SKC,0.01,VWS V14.01,2013-07-17 14:21:00,
2013-07-17 10:23:00,81.5,81.3,30.21,North,359,11.7,12.5,99,0.01,,SKC,0.01,VWS V14.01,2013-07-17 14:23:00,
2013-07-17 10:24:00,81.4,81.1,30.21,SSE,167,3.4,14.0,99,0.01,,SKC,0.01,VWS V14.01,2013-07-17 14:24:00,
2013-07-17 10:25:00,81.3,81.0,30.21,SSE,167,0.0,14.0,99,0.01,,SKC,0.01,VWS V14.01,2013-07-17 14:25:00,
2013-07-17 10:26:00,81.4,81.1,30.20,South,181,6.5,14.0,99,0.01,,SKC,0.01,VWS V14.01,2013-07-17 14:26:00,
2013-07-17 10:28:00,81.4,81.1,30.21,South,176,8.4,14.0,99,0.01,,SKC,0.01,VWS V14.01,2013-07-17 14:28:00,
2013-07-17 10:29:00,81.4,81.1,30.20,South,176,0.0,14.0,99,0.01,,SKC,0.01,VWS V14.01,2013-07-17 14:29:00,
2013-07-17 10:30:00,81.4,81.2,30.20,North,359,11.6,14.0,99,0.01,,SKC,0.01,VWS V14.01,2013-07-17 14:30:00,
2013-07-17 10:31:00,81.5,81.2,30.20,South,170,7.4,14.0,99,0.01,,SKC,0.01,VWS V14.01,2013-07-17 14:31:00,
2013-07-17 10:33:00,81.7,81.5,30.20,SSE,160,0.0,14.0,99,0.01,,SKC,0.01,VWS V14.01,2013-07-17 14:33:00,
2013-07-17 10:34:00,81.8,81.6,30.20,North,359,7.3,14.0,99,0.01,,SKC,0.01,VWS V14.01,2013-07-17 14:34:00,
2013-07-17 10:35:00,82.0,81.7,30.20,North,359,0.5,14.0,99,0.01,,SKC,0.01,VWS V14.01,2013-07-17 14:35:00,
2013-07-17 10:36:00,82.1,81.7,30.21,North,359,0.0,14.0,99,0.01,,SKC,0.01,VWS V14.01,2013-07-17 14:36:00,
2013-07-17 10:38:00,82.0,81.5,30.21,South,179,4.0,14.0,98,0.01,,SKC,0.01,VWS V14.01,2013-07-17 14:38:00,
2013-07-17 10:39:00,82.1,81.7,30.21,South,172,4.8,14.0,99,0.01,,SKC,0.01,VWS V14.01,2013-07-17 14:39:00,
2013-07-17 10:40:00,82.2,81.9,30.21,North,359,5.2,14.0,99,0.01,,SKC,0.01,VWS V14.01,2013-07-17 14:40:00,
2013-07-17 10:41:00,82.3,82.0,30.21,SSE,155,3.0,14.0,99,0.01,,SKC,0.01,VWS V14.01,2013-07-17 14:41:00,
2013-07-17 10:43:00,82.2,81.7,30.21,South,184,3.4,14.0,98,0.01,,SKC,0.01,VWS V14.01,2013-07-17 14:43:00,
2013-07-17 10:45:00,82.3,81.8,30.20,South,177,6.8,14.0,98,0.01,,SKC,0.01,VWS V14.01,2013-07-17 14:45:00,
2013-07-17 10:46:00,82.1,81.6,30.20,North,359,0.0,14.0,98,0.01,,SKC,0.01,VWS V14.01,2013-07-17 14:46:00,
2013-07-17 10:47:00,82.2,81.7,30.20,SSE,166,5.2,14.0,98,0.01,,SKC,0.01,VWS V14.01,2013-07-17 14:47:00,
2013-07-17 10:48:00,82.3,81.9,30.20,North,359,5.2,14.0,99,0.01,,SKC,0.01,VWS V14.01,2013-07-17 14:48:00,
2013-07-17 10:50:00,82.4,82.0,30.21,North,359,7.3,14.0,99,0.01,,SKC,0.01,VWS V14.01,2013-07-17 14:50:00,
2013-07-17 10:51:00,82.5,82.0,30.21,SW,214,7.3,14.0,98,0.01,,SKC,0.01,VWS V14.01,2013-07-17 14:51:00,
2013-07-17 10:52:00,82.4,81.7,30.21,SW,214,0.0,14.0,98,0.01,,SKC,0.01,VWS V14.01,2013-07-17 14:52:00,
2013-07-17 10:53:00,82.3,81.7,30.21,South,186,3.7,14.0,98,0.01,,SKC,0.01,VWS V14.01,2013-07-17 14:53:00,
2013-07-17 10:55:00,82.3,81.6,30.21,South,184,5.6,14.0,98,0.01,,SKC,0.01,VWS V14.01,2013-07-17 14:55:00,
2013-07-17 10:57:00,82.4,81.8,30.21,North,359,0.0,14.0,98,0.01,,SKC,0.01,VWS V14.01,2013-07-17 14:57:00,
2013-07-17 10:59:00,82.4,81.9,30.21,North,359,0.0,14.0,98,0.01,,SKC,0.01,VWS V14.01,2013-07-17 14:59:00,
2013-07-17 11:00:00,82.8,82.2,30.21,South,179,4.6,14.0,98,0.01,,SKC,0.01,VWS V14.01,2013-07-17 15:00:00,
2013-07-17 11:02:00,82.8,82.0,30.21,North,359,4.7,14.0,98,0.01,,SKC,0.01,VWS V14.01,2013-07-17 15:02:00,
2013-07-17 11:04:00,83.0,82.3,30.21,South,180,2.4,14.0,98,0.01,,SKC,0.01,VWS V14.01,2013-07-17 15:04:00,
2013-07-17 11:05:00,83.2,82.3,30.21,SSE,167,5.7,14.0,97,0.01,,SKC,0.01,VWS V14.01,2013-07-17 15:05:00,
2013-07-17 11:07:00,83.0,82.0,30.21,SSW,194,6.3,14.0,97,0.01,,SKC,0.01,VWS V14.01,2013-07-17 15:07:00,
2013-07-17 11:09:00,83.1,82.2,30.22,SSW,194,6.5,14.0,97,0.01,,SKC,0.01,VWS V14.01,2013-07-17 15:09:00,
2013-07-17 11:10:00,83.2,82.3,30.22,SSE,167,2.9,14.0,97,0.01,,SKC,0.01,VWS V14.01,2013-07-17 15:10:00,
2013-07-17 11:12:00,83.3,82.4,30.22,SSW,212,4.3,14.0,97,0.01,,SKC,0.01,VWS V14.01,2013-07-17 15:12:00,
2013-07-17 11:13:00,83.3,82.4,30.22,North,359,1.2,14.0,97,0.01,,SKC,0.01,VWS V14.01,2013-07-17 15:13:00,
2013-07-17 11:14:00,83.0,81.9,30.22,North,359,2.1,14.0,97,0.01,,SKC,0.01,VWS V14.01,2013-07-17 15:14:00,
2013-07-17 11:15:00,83.0,82.0,30.22,South,188,6.0,14.0,97,0.01,,SKC,0.01,VWS V14.01,2013-07-17 15:15:00,
2013-07-17 11:17:00,82.9,82.1,30.22,South,181,9.4,14.0,98,0.01,,SKC,0.01,VWS V14.01,2013-07-17 15:17:00,
2013-07-17 11:18:00,82.9,82.0,30.21,North,359,2.3,14.0,97,0.01,,SKC,0.01,VWS V14.01,2013-07-17 15:18:00,
2013-07-17 11:19:00,82.9,82.0,30.22,South,173,6.0,14.0,97,0.01,,SKC,0.01,VWS V14.01,2013-07-17 15:19:00,
2013-07-17 11:20:00,83.0,82.2,30.22,SSW,200,1.9,14.0,97,0.01,,SKC,0.01,VWS V14.01,2013-07-17 15:20:00,
2013-07-17 11:22:00,83.2,82.3,30.22,North,359,3.3,14.0,97,0.01,,SKC,0.01,VWS V14.01,2013-07-17 15:22:00,
2013-07-17 11:23:00,83.2,82.2,30.21,SSE,162,0.4,14.0,97,0.01,,SKC,0.01,VWS V14.01,2013-07-17 15:23:00,
2013-07-17 11:24:00,83.4,82.5,30.22,North,359,9.8,14.0,97,0.01,,SKC,0.01,VWS V14.01,2013-07-17 15:24:00,
2013-07-17 11:25:00,83.4,82.4,30.21,North,359,0.0,14.0,97,0.01,,SKC,0.01,VWS V14.01,2013-07-17 15:25:00,
2013-07-17 11:27:00,83.5,82.3,30.21,South,190,4.3,14.0,96,0.01,,SKC,0.01,VWS V14.01,2013-07-17 15:27:00,
2013-07-17 11:28:00,83.4,82.2,30.22,North,359,8.7,14.0,96,0.01,,SKC,0.01,VWS V14.01,2013-07-17 15:28:00,
2013-07-17 11:29:00,83.5,82.4,30.22,North,359,0.0,14.0,96,0.01,,SKC,0.01,VWS V14.01,2013-07-17 15:29:00,
2013-07-17 11:30:00,83.5,82.3,30.21,SW,228,1.3,14.0,96,0.01,,SKC,0.01,VWS V14.01,2013-07-17 15:30:00,
2013-07-17 11:31:00,83.5,82.2,30.21,SSW,205,2.7,14.0,96,0.01,,SKC,0.01,VWS V14.01,2013-07-17 15:31:00,
2013-07-17 11:32:00,83.5,82.3,30.22,North,359,0.0,14.0,96,0.01,,SKC,0.01,VWS V14.01,2013-07-17 15:32:00,
2013-07-17 11:33:00,83.4,82.2,30.22,SW,232,3.6,14.0,96,0.01,,SKC,0.01,VWS V14.01,2013-07-17 15:33:00,
2013-07-17 11:34:00,83.4,82.2,30.21,South,186,3.2,14.0,96,0.01,,SKC,0.01,VWS V14.01,2013-07-17 15:34:00,
2013-07-17 11:35:00,83.4,82.3,30.21,South,174,0.0,14.0,96,0.01,,SKC,0.01,VWS V14.01,2013-07-17 15:35:00,
2013-07-17 11:36:00,83.5,82.4,30.21,SSW,212,9.4,14.0,96,0.01,,SKC,0.01,VWS V14.01,2013-07-17 15:36:00,
2013-07-17 11:38:00,83.5,82.3,30.21,SSW,205,9.3,14.0,96,0.01,,SKC,0.01,VWS V14.01,2013-07-17 15:38:00,
2013-07-17 11:39:00,83.4,82.1,30.22,SW,228,8.0,14.0,96,0.01,,SKC,0.01,VWS V14.01,2013-07-17 15:39:00,
2013-07-17 11:41:00,83.4,82.2,30.22,South,174,9.1,14.0,96,0.01,,SKC,0.01,VWS V14.01,2013-07-17 15:41:00,
2013-07-17 11:43:00,83.4,82.3,30.22,SSE,166,2.4,14.0,96,0.01,,SKC,0.01,VWS V14.01,2013-07-17 15:43:00,
2013-07-17 11:44:00,83.4,82.3,30.22,SSW,202,4.2,14.0,96,0.01,,SKC,0.01,VWS V14.01,2013-07-17 15:44:00,
2013-07-17 11:46:00,83.5,82.5,30.22,South,184,9.1,14.0,97,0.01,,SKC,0.01,VWS V14.01,2013-07-17 15:46:00,
2013-07-17 11:48:00,83.4,82.5,30.22,North,359,2.5,14.0,97,0.01,,SKC,0.01,VWS V14.01,2013-07-17 15:48:00,
2013-07-17 11:49:00,83.5,82.4,30.22,SSW,193,8.0,14.0,97,0.01,,SKC,0.01,VWS V14.01,2013-07-17 15:49:00,
2013-07-17 11:51:00,83.4,82.4,30.22,South,180,2.7,14.0,97,0.01,,SKC,0.01,VWS V14.01,2013-07-17 15:51:00,
2013-07-17 11:52:00,83.4,82.5,30.22,SSW,200,5.0,14.0,97,0.01,,SKC,0.01,VWS V14.01,2013-07-17 15:52:00,
2013-07-17 11:53:00,83.6,82.7,30.22,North,359,0.4,14.0,97,0.01,,SKC,0.01,VWS V14.01,2013-07-17 15:53:00,
2013-07-17 11:54:00,83.5,82.5,30.22,SW,217,4.5,14.0,97,0.01,,SKC,0.01,VWS V14.01,2013-07-17 15:54:00,
2013-07-17 11:56:00,83.7,82.8,30.22,North,359,0.4,14.0,97,0.01,,SKC,0.01,VWS V14.01,2013-07-17 15:56:00,
2013-07-17 11:57:00,83.7,82.8,30.22,North,359,9.3,14.0,97,0.01,,SKC,0.01,VWS V14.01,2013-07-17 15:57:00,
2013-07-17 11:58:00,83.6,82.7,30.22,South,183,7.6,14.0,97,0.01,,SKC,0.01,VWS V14.01,2013-07-17 15:58:00,
2013-07-17 11:59:00,83.6,82.7,30.22,South,187,4.0,14.0,97,0.01,,SKC,0.01,VWS V14.01,2013-07-17 15:59:00,
2013-07-17 12:00:00,83.6,82.7,30.22,SSW,212,3.3,14.0,97,0.01,,SKC,0.01,VWS V14.01,2013-07-17 16:00:00,
2013-07-17 12:02:00,83.9,83.0,30.22,South,174,3.8,14.0,97,0.01,,SKC,0.01,VWS V14.01,2013-07-17 16:02:00,
2013-07-17 12:03:00,83.9,83.0,30.22,South,172,3.0,14.0,97,0.01,,SKC,0.01,VWS V14.01,2013-07-17 16:03:00,
2013-07-17 12:04:00,84.0,83.1,30.22,South,174,6.5,14.0,97,0.01,,SKC,0.01,VWS V14.01,2013-07-17 16:04:00,
2013-07-17 12:05:00,84.1,83.1,30.22,SSW,204,2.2,14.0,97,0.01,,SKC,0.01,VWS V14.01,2013-07-17 16:05:00,
2013-07-17 12:07:00,84.1,82.9,30.22,SSW,201,5.3,14.0,96,0.01,,SKC,0.01,VWS V14.01,2013-07-17 16:07:00,
2013-07-17 12:08:00,84.3,83.2,30.22,South,184,3.4,14.0,96,0.01,,SKC,0.01,VWS V14.01,2013-07-17 16:08:00,
2013-07-17 12:09:00,84.3,83.2,30.22,North,359,9.6,14.0,97,0.01,,SKC,0.01,VWS V14.01,2013-07-17 16:09:00,
2013-07-17 12:10:00,84.4,83.3,30.22,SSW,200,2.4,14.0,97,0.01,,SKC,0.01,VWS V14.01,2013-07-17 16:10:00,
2013-07-17 12:12:00,84.3,83.2,30.22,North,359,0.0,14.0,96,0.01,,SKC,0.01,VWS V14.01,2013-07-17 16:12:00,
2013-07-17 12:13:00,84.3,83.2,30.22,North,359,0.2,14.0,97,0.01,,SKC,0.01,VWS V14.01,2013-07-17 16:13:00,
2013-07-17 12:15:00,84.4,83.4,30.22,North,359,7.4,14.0,97,0.01,,SKC,0.01,VWS V14.01,2013-07-17 16:15:00,
2013-07-17 12:17:00,84.4,83.3,30.22,North,359,6.5,14.0,96,0.01,,SKC,0.01,VWS V14.01,2013-07-17 16:17:00,
2013-07-17 12:18:00,84.4,83.3,30.22,North,359,0.0,14.0,96,0.01,,SKC,0.01,VWS V14.01,2013-07-17 16:18:00,
2013-07-17 12:20:00,84.5,83.3,30.22,North,359,0.0,14.0,96,0.01,,SKC,0.01,VWS V14.01,2013-07-17 16:20:00,
2013-07-17 12:21:00,84.4,83.2,30.22,North,359,0.2,14.0,96,0.01,,SKC,0.01,VWS V14.01,2013-07-17 16:21:00,
2013-07-17 12:22:00,84.5,83.2,30.22,North,359,0.0,14.0,96,0.01,,SKC,0.01,VWS V14.01,2013-07-17 16:22:00,
2013-07-17 12:23:00,84.5,83.3,30.22,SSW,195,7.0,14.0,96,0.01,,SKC,0.01,VWS V14.01,2013-07-17 16:23:00,
2013-07-17 12:25:00,84.6,83.4,30.22,North,359,0.0,14.0,96,0.01,,SKC,0.01,VWS V14.01,2013-07-17 16:25:00,
2013-07-17 12:26:00,84.6,83.4,30.22,North,359,0.0,14.0,96,0.01,,SKC,0.01,VWS V14.01,2013-07-17 16:26:00,
2013-07-17 12:27:00,84.5,83.3,30.22,SSW,208,3.9,14.0,96,0.01,,SKC,0.01,VWS V14.01,2013-07-17 16:27:00,
2013-07-17 12:28:00,84.4,83.0,30.22,SW,222,0.4,14.0,96,0.01,,SKC,0.01,VWS V14.01,2013-07-17 16:28:00,
2013-07-17 12:29:00,84.5,83.1,30.22,SW,222,0.0,14.0,96,0.01,,SKC,0.01,VWS V14.01,2013-07-17 16:29:00,
2013-07-17 12:30:00,84.5,83.2,30.22,North,359,0.0,14.0,96,0.01,,SKC,0.01,VWS V14.01,2013-07-17 16:30:00,
2013-07-17 12:31:00,84.4,83.1,30.21,North,359,0.2,14.0,96,0.01,,SKC,0.01,VWS V14.01,2013-07-17 16:31:00,
2013-07-17 12:32:00,84.5,83.3,30.22,North,359,0.0,14.0,96,0.01,,SKC,0.01,VWS V14.01,2013-07-17 16:32:00,
2013-07-17 12:33:00,84.5,83.3,30.22,North,359,0.0,14.0,96,0.01,,SKC,0.01,VWS V14.01,2013-07-17 16:33:00,
2013-07-17 12:34:00,84.4,83.2,30.22,North,359,0.0,14.0,96,0.01,,SKC,0.01,VWS V14.01,2013-07-17 16:34:00,
2013-07-17 12:35:00,84.4,83.3,30.22,North,359,0.0,14.0,96,0.01,,SKC,0.01,VWS V14.01,2013-07-17 16:35:00,
2013-07-17 12:36:00,84.5,83.3,30.22,North,359,0.0,14.0,96,0.01,,SKC,0.01,VWS V14.01,2013-07-17 16:36:00,
2013-07-17 12:37:00,84.5,83.3,30.22,North,359,0.0,14.0,96,0.01,,SKC,0.01,VWS V14.01,2013-07-17 16:37:00,
2013-07-17 12:39:00,84.5,83.3,30.22,South,188,7.6,14.0,96,0.01,,SKC,0.01,VWS V14.01,2013-07-17 16:39:00,
2013-07-17 12:41:00,84.3,83.0,30.22,SSW,204,5.0,14.0,96,0.01,,SKC,0.01,VWS V14.01,2013-07-17 16:41:00,
2013-07-17 12:42:00,84.3,83.2,30.22,SSW,201,8.8,14.0,96,0.01,,SKC,0.01,VWS V14.01,2013-07-17 16:42:00,
2013-07-17 12:44:00,84.3,83.3,30.21,North,359,0.0,14.0,97,0.01,,SKC,0.01,VWS V14.01,2013-07-17 16:44:00,
2013-07-17 12:46:00,84.4,83.4,30.22,SSW,198,0.0,14.0,97,0.01,,SKC,0.01,VWS V14.01,2013-07-17 16:46:00,
2013-07-17 12:48:00,84.4,83.2,30.22,North,359,8.6,14.0,96,0.01,,SKC,0.01,VWS V14.01,2013-07-17 16:48:00,
2013-07-17 12:49:00,84.4,83.2,30.22,North,359,0.6,14.0,96,0.01,,SKC,0.01,VWS V14.01,2013-07-17 16:49:00,
2013-07-17 12:51:00,84.4,83.3,30.22,SSW,197,7.1,14.0,96,0.01,,SKC,0.01,VWS V14.01,2013-07-17 16:51:00,
2013-07-17 12:53:00,84.4,83.3,30.22,South,183,7.1,14.0,96,0.01,,SKC,0.01,VWS V14.01,2013-07-17 16:53:00,
2013-07-17 12:54:00,84.4,83.2,30.22,North,359,0.9,14.0,96,0.01,,SKC,0.01,VWS V14.01,2013-07-17 16:54:00,
2013-07-17 12:56:00,84.4,83.4,30.22,SSW,195,2.1,14.0,97,0.01,,SKC,0.01,VWS V14.01,2013-07-17 16:56:00,
2013-07-17 12:58:00,84.3,83.2,30.22,South,184,1.2,14.0,96,0.01,,SKC,0.01,VWS V14.01,2013-07-17 16:58:00,
2013-07-17 12:59:00,84.4,83.2,30.22,SSW,210,0.0,14.0,96,0.01,,SKC,0.01,VWS V14.01,2013-07-17 16:59:00,
2013-07-17 13:01:00,84.4,83.3,30.22,South,170,6.6,14.0,96,0.01,,SKC,0.01,VWS V14.01,2013-07-17 17:01:00,
2013-07-17 13:02:00,84.3,83.2,30.22,North,359,8.9,14.0,96,0.01,,SKC,0.01,VWS V14.01,2013-07-17 17:02:00,
2013-07-17 13:03:00,84.4,83.3,30.22,North,359,5.1,14.0,96,0.01,,SKC,0.01,VWS V14.01,2013-07-17 17:03:00,
2013-07-17 13:04:00,84.4,83.2,30.22,SSW,200,4.2,14.0,96,0.01,,SKC,0.01,VWS V14.01,2013-07-17 17:04:00,
2013-07-17 13:07:00,84.7,83.8,30.22,SSE,162,7.5,14.0,97,0.01,,SKC,0.01,VWS V14.01,2013-07-17 17:07:00,
2013-07-17 13:08:00,84.8,83.7,30.22,SSE,158,7.0,14.0,97,0.01,,SKC,0.01,VWS V14.01,2013-07-17 17:08:00,
2013-07-17 13:09:00,84.8,83.6,30.22,South,188,6.6,14.0,96,0.01,,SKC,0.01,VWS V14.01,2013-07-17 17:09:00,
2013-07-17 13:12:00,84.8,83.4,30.22,South,179,5.5,14.0,96,0.01,,SKC,0.01,VWS V14.01,2013-07-17 17:12:00,
2013-07-17 13:14:00,84.7,83.4,30.22,North,359,0.0,14.0,96,0.01,,SKC,0.01,VWS V14.01,2013-07-17 17:14:00,
2013-07-17 13:15:00,84.8,83.7,30.22,South,188,6.8,14.0,96,0.01,,SKC,0.01,VWS V14.01,2013-07-17 17:15:00,
2013-07-17 13:17:00,84.8,83.6,30.22,SW,226,3.9,14.0,96,0.01,,SKC,0.01,VWS V14.01,2013-07-17 17:17:00,
2013-07-17 13:18:00,84.8,83.6,30.22,North,359,1.1,14.0,96,0.01,,SKC,0.01,VWS V14.01,2013-07-17 17:18:00,
2013-07-17 13:19:00,84.7,83.4,30.22,South,187,8.8,14.0,96,0.01,,SKC,0.01,VWS V14.01,2013-07-17 17:19:00,
2013-07-17 13:20:00,84.6,83.3,30.22,South,176,3.5,14.0,96,0.01,,SKC,0.01,VWS V14.01,2013-07-17 17:20:00,
2013-07-17 13:22:00,84.8,83.7,30.22,SSW,201,0.0,14.0,96,0.01,,SKC,0.01,VWS V14.01,2013-07-17 17:22:00,
2013-07-17 13:23:00,84.9,83.8,30.22,North,359,1.6,14.0,96,0.01,,SKC,0.01,VWS V14.01,2013-07-17 17:23:00,
2013-07-17 13:24:00,85.2,84.0,30.22,SSW,197,5.9,14.0,96,0.01,,SKC,0.01,VWS V14.01,2013-07-17 17:24:00,
2013-07-17 13:25:00,85.2,84.0,30.22,South,191,3.2,14.0,96,0.01,,SKC,0.01,VWS V14.01,2013-07-17 17:25:00,
2013-07-17 13:26:00,85.2,84.0,30.21,North,359,2.2,14.0,96,0.01,,SKC,0.01,VWS V14.01,2013-07-17 17:26:00,
2013-07-17 13:28:00,85.1,83.7,30.21,SSW,193,6.6,14.0,96,0.01,,SKC,0.01,VWS V14.01,2013-07-17 17:28:00,
2013-07-17 13:29:00,85.1,83.7,30.21,WSW,242,4.8,14.0,96,0.01,,SKC,0.01,VWS V14.01,2013-07-17 17:29:00,
2013-07-17 13:31:00,85.0,83.3,30.22,SW,222,8.6,14.0,96,0.01,,SKC,0.01,VWS V14.01,2013-07-17 17:31:00,
2013-07-17 13:33:00,85.0,83.5,30.21,SSW,202,0.0,14.0,95,0.01,,SKC,0.01,VWS V14.01,2013-07-17 17:33:00,
2013-07-17 13:34:00,85.0,83.5,30.21,North,359,0.6,14.0,95,0.01,,SKC,0.01,VWS V14.01,2013-07-17 17:34:00,
2013-07-17 13:36:00,85.0,83.4,30.22,South,190,7.0,14.0,95,0.01,,SKC,0.01,VWS V14.01,2013-07-17 17:36:00,
2013-07-17 13:38:00,84.9,82.7,30.22,North,359,5.6,14.0,93,0.01,,SKC,0.01,VWS V14.01,2013-07-17 17:38:00,
2013-07-17 13:39:00,85.0,83.2,30.21,SSE,167,7.7,14.0,94,0.01,,SKC,0.01,VWS V14.01,2013-07-17 17:39:00,
2013-07-17 13:41:00,85.1,83.5,30.21,North,359,7.5,14.0,95,0.01,,SKC,0.01,VWS V14.01,2013-07-17 17:41:00,
2013-07-17 13:43:00,85.2,83.5,30.22,South,173,10.8,14.0,95,0.01,,SKC,0.01,VWS V14.01,2013-07-17 17:43:00,
2013-07-17 13:45:00,85.1,83.3,30.22,South,177,9.1,14.0,94,0.01,,SKC,0.01,VWS V14.01,2013-07-17 17:45:00,
2013-07-17 13:46:00,85.1,83.4,30.22,South,176,6.3,14.0,95,0.01,,SKC,0.01,VWS V14.01,2013-07-17 17:46:00,
2013-07-17 13:48:00,84.9,83.4,30.22,South,184,8.6,14.0,95,0.01,,SKC,0.01,VWS V14.01,2013-07-17 17:48:00,
2013-07-17 13:49:00,84.8,83.2,30.22,SSW,201,4.6,14.0,95,0.01,,SKC,0.01,VWS V14.01,2013-07-17 17:49:00,
2013-07-17 13:50:00,84.8,82.9,30.22,SSE,167,11.4,14.7,94,0.01,,SKC,0.01,VWS V14.01,2013-07-17 17:50:00,
2013-07-17 13:51:00,84.5,82.5,30.21,South,170,8.0,14.7,94,0.01,,SKC,0.01,VWS V14.01,2013-07-17 17:51:00,
2013-07-17 13:54:00,84.8,82.7,30.22,SSW,201,5.3,14.7,93,0.01,,SKC,0.01,VWS V14.01,2013-07-17 17:54:00,
2013-07-17 13:55:00,84.9,83.3,30.21,South,174,5.5,14.7,95,0.01,,SKC,0.01,VWS V14.01,2013-07-17 17:55:00,
2013-07-17 13:56:00,85.0,83.2,30.21,South,170,5.4,14.7,94,0.01,,SKC,0.01,VWS V14.01,2013-07-17 17:56:00,
2013-07-17 13:58:00,85.1,82.1,30.21,South,170,0.0,14.7,91,0.01,,SKC,0.01,VWS V14.01,2013-07-17 17:58:00,
2013-07-17 13:59:00,85.2,82.3,30.21,South,170,8.7,14.7,91,0.01,,SKC,0.01,VWS V14.01,2013-07-17 17:59:00,
2013-07-17 14:00:00,85.3,82.6,30.21,South,184,5.2,14.7,92,0.01,,SKC,0.01,VWS V14.01,2013-07-17 18:00:00,
2013-07-17 14:01:00,85.5,82.7,30.21,SW,215,6.7,14.7,91,0.01,,SKC,0.01,VWS V14.01,2013-07-17 18:01:00,
2013-07-17 14:02:00,85.5,82.7,30.21,SSW,204,7.7,14.7,91,0.01,,SKC,0.01,VWS V14.01,2013-07-17 18:02:00,
2013-07-17 14:04:00,85.6,82.4,30.21,South,191,7.0,14.7,90,0.01,,SKC,0.01,VWS V14.01,2013-07-17 18:04:00,
2013-07-17 14:05:00,85.5,81.8,30.21,South,179,5.9,14.7,89,0.01,,SKC,0.01,VWS V14.01,2013-07-17 18:05:00,
2013-07-17 14:06:00,85.4,81.3,30.21,SW,226,5.3,14.7,88,0.01,,SKC,0.01,VWS V14.01,2013-07-17 18:06:00,
2013-07-17 14:07:00,85.3,81.2,30.21,SSE,158,0.0,14.7,88,0.01,,SKC,0.01,VWS V14.01,2013-07-17 18:07:00,
2013-07-17 14:09:00,85.2,81.6,30.21,SSW,211,3.4,14.7,89,0.01,,SKC,0.01,VWS V14.01,2013-07-17 18:09:00,
2013-07-17 14:10:00,85.2,82.3,30.21,North,359,1.1,14.7,91,0.01,,SKC,0.01,VWS V14.01,2013-07-17 18:10:00,
2013-07-17 14:11:00,85.2,82.5,30.21,South,188,7.6,14.7,92,0.01,,SKC,0.01,VWS V14.01,2013-07-17 18:11:00,
2013-07-17 14:12:00,85.2,82.4,30.21,South,170,8.8,14.7,91,0.01,,SKC,0.01,VWS V14.01,2013-07-17 18:12:00,
2013-07-17 14:14:00,85.0,82.8,30.21,SW,217,0.0,14.7,93,0.01,,SKC,0.01,VWS V14.01,2013-07-17 18:14:00,
2013-07-17 14:15:00,85.0,83.4,30.21,SSW,195,9.1,14.7,95,0.01,,SKC,0.01,VWS V14.01,2013-07-17 18:15:00,
2013-07-17 14:16:00,84.6,83.4,30.21,North,359,0.0,14.7,96,0.01,,SKC,0.01,VWS V14.01,2013-07-17 18:16:00,
2013-07-17 14:17:00,84.5,83.4,30.21,North,359,0.0,14.7,97,0.01,,SKC,0.01,VWS V14.01,2013-07-17 18:17:00,
2013-07-17 14:19:00,84.4,83.6,30.21,North,359,9.3,14.7,97,0.01,,SKC,0.01,VWS V14.01,2013-07-17 18:19:00,
2013-07-17 14:20:00,84.3,83.6,30.21,South,190,0.0,14.7,98,0.01,,SKC,0.01,VWS V14.01,2013-07-17 18:20:00,
2013-07-17 14:22:00,84.2,83.4,30.21,SSW,194,6.7,14.7,98,0.01,,SKC,0.01,VWS V14.01,2013-07-17 18:22:00,
2013-07-17 14:23:00,84.3,83.6,30.21,South,188,3.4,14.7,98,0.01,,SKC,0.01,VWS V14.01,2013-07-17 18:23:00,
2013-07-17 14:24:00,84.3,83.4,30.21,South,179,3.1,14.7,97,0.01,,SKC,0.01,VWS V14.01,2013-07-17 18:24:00,
2013-07-17 14:25:00,84.4,83.4,30.21,South,187,5.5,14.7,97,0.01,,SKC,0.01,VWS V14.01,2013-07-17 18:25:00,
2013-07-17 14:27:00,84.3,83.1,30.21,South,173,0.6,14.7,96,0.01,,SKC,0.01,VWS V14.01,2013-07-17 18:27:00,
2013-07-17 14:28:00,84.3,83.2,30.21,South,169,4.5,14.7,96,0.01,,SKC,0.01,VWS V14.01,2013-07-17 18:28:00,
2013-07-17 14:29:00,84.3,83.2,30.21,SSW,210,2.2,14.7,96,0.01,,SKC,0.01,VWS V14.01,2013-07-17 18:29:00,
2013-07-17 14:31:00,84.4,83.2,30.20,North,359,6.6,14.7,96,0.01,,SKC,0.01,VWS V14.01,2013-07-17 18:31:00,
2013-07-17 14:32:00,84.4,83.0,30.20,North,359,0.0,14.7,96,0.01,,SKC,0.01,VWS V14.01,2013-07-17 18:32:00,
2013-07-17 14:33:00,84.4,83.0,30.20,South,174,4.0,14.7,96,0.01,,SKC,0.01,VWS V14.01,2013-07-17 18:33:00,
2013-07-17 14:34:00,84.4,82.9,30.20,South,183,5.5,14.7,95,0.01,,SKC,0.01,VWS V14.01,2013-07-17 18:34:00,
2013-07-17 14:36:00,84.5,83.0,30.20,South,172,5.8,14.7,95,0.01,,SKC,0.01,VWS V14.01,2013-07-17 18:36:00,
2013-07-17 14:38:00,84.5,83.1,30.20,South,187,4.9,14.7,96,0.01,,SKC,0.01,VWS V14.01,2013-07-17 18:38:00,
2013-07-17 14:39:00,84.6,83.1,30.20,South,179,4.3,14.7,95,0.01,,SKC,0.01,VWS V14.01,2013-07-17 18:39:00,
2013-07-17 14:40:00,84.8,83.2,30.20,North,359,3.2,14.7,95,0.01,,SKC,0.01,VWS V14.01,2013-07-17 18:40:00,
2013-07-17 14:41:00,84.8,83.2,30.20,SW,228,6.5,14.7,95,0.01,,SKC,0.01,VWS V14.01,2013-07-17 18:41:00,
2013-07-17 14:43:00,84.9,83.4,30.20,South,169,4.6,14.7,95,0.01,,SKC,0.01,VWS V14.01,2013-07-17 18:43:00,
2013-07-17 14:44:00,84.9,83.2,30.20,South,172,7.0,14.7,94,0.01,,SKC,0.01,VWS V14.01,2013-07-17 18:44:00,
2013-07-17 14:45:00,85.0,83.3,30.20,SSE,167,4.8,14.7,95,0.01,,SKC,0.01,VWS V14.01,2013-07-17 18:45:00,
2013-07-17 14:46:00,85.0,83.4,30.20,South,181,0.0,14.7,95,0.01,,SKC,0.01,VWS V14.01,2013-07-17 18:46:00,
2013-07-17 14:48:00,85.0,83.5,30.20,South,190,6.8,14.7,95,0.01,,SKC,0.01,VWS V14.01,2013-07-17 18:48:00,
2013-07-17 14:49:00,84.9,83.3,30.20,SSW,200,6.7,14.7,95,0.01,,SKC,0.01,VWS V14.01,2013-07-17 18:49:00,
2013-07-17 14:50:00,85.0,83.4,30.20,SSE,156,5.2,14.7,95,0.01,,SKC,0.01,VWS V14.01,2013-07-17 18:50:00,
2013-07-17 14:51:00,84.9,83.2,30.20,SSW,198,0.0,14.7,95,0.01,,SKC,0.01,VWS V14.01,2013-07-17 18:51:00,
2013-07-17 14:53:00,85.0,83.3,30.20,SSW,198,0.0,14.7,95,0.01,,SKC,0.01,VWS V14.01,2013-07-17 18:53:00,
2013-07-17 14:54:00,85.1,83.3,30.19,North,359,7.6,14.7,94,0.01,,SKC,0.01,VWS V14.01,2013-07-17 18:54:00,
2013-07-17 14:55:00,85.1,83.4,30.20,SSW,197,3.7,14.7,95,0.01,,SKC,0.01,VWS V14.01,2013-07-17 18:55:00,
2013-07-17 14:56:00,85.0,83.2,30.19,South,191,4.0,14.7,94,0.01,,SKC,0.01,VWS V14.01,2013-07-17 18:56:00,
2013-07-17 14:58:00,84.9,83.2,30.19,North,359,3.7,14.7,95,0.01,,SKC,0.01,VWS V14.01,2013-07-17 18:58:00,
2013-07-17 14:59:00,84.9,83.1,30.20,North,359,0.0,14.7,94,0.01,,SKC,0.01,VWS V14.01,2013-07-17 18:59:00,
2013-07-17 15:00:00,84.9,83.2,30.20,North,359,0.0,14.7,94,0.01,,SKC,0.01,VWS V14.01,2013-07-17 19:00:00,
2013-07-17 15:02:00,85.0,82.8,30.20,North,359,0.0,14.7,93,0.01,,SKC,0.01,VWS V14.01,2013-07-17 19:02:00,
2013-07-17 15:03:00,85.1,82.8,30.20,North,359,2.7,14.7,93,0.01,,SKC,0.01,VWS V14.01,2013-07-17 19:03:00,
2013-07-17 15:05:00,85.1,83.1,30.20,SW,225,1.5,14.7,94,0.01,,SKC,0.01,VWS V14.01,2013-07-17 19:05:00,
2013-07-17 15:06:00,85.2,83.0,30.19,North,359,1.7,14.7,93,0.01,,SKC,0.01,VWS V14.01,2013-07-17 19:06:00,
2013-07-17 15:07:00,85.2,83.2,30.19,SSW,193,3.1,14.7,94,0.01,,SKC,0.01,VWS V14.01,2013-07-17 19:07:00,
2013-07-17 15:08:00,85.2,82.7,30.19,North,359,7.9,14.7,92,0.01,,SKC,0.01,VWS V14.01,2013-07-17 19:08:00,
2013-07-17 15:09:00,85.2,82.8,30.19,North,359,6.8,14.7,92,0.01,,SKC,0.01,VWS V14.01,2013-07-17 19:09:00,
2013-07-17 15:10:00,85.2,82.5,30.19,WSW,240,3.9,14.7,92,0.01,,SKC,0.01,VWS V14.01,2013-07-17 19:10:00,
2013-07-17 15:11:00,85.2,82.7,30.19,South,174,7.3,14.7,92,0.01,,SKC,0.01,VWS V14.01,2013-07-17 19:11:00,
2013-07-17 15:12:00,85.2,82.8,30.19,South,169,3.7,14.7,93,0.01,,SKC,0.01,VWS V14.01,2013-07-17 19:12:00,
2013-07-17 15:14:00,85.4,83.3,30.19,SSW,193,2.5,14.7,93,0.01,,SKC,0.01,VWS V14.01,2013-07-17 19:14:00,
2013-07-17 15:15:00,85.2,81.9,30.19,South,190,7.4,14.7,90,0.01,,SKC,0.01,VWS V14.01,2013-07-17 19:15:00,
2013-07-17 15:16:00,85.2,81.9,30.19,North,359,0.9,14.7,90,0.01,,SKC,0.01,VWS V14.01,2013-07-17 19:16:00,
2013-07-17 15:17:00,84.9,81.1,30.19,North,359,4.2,14.7,88,0.01,,SKC,0.01,VWS V14.01,2013-07-17 19:17:00,
2013-07-17 15:19:00,84.9,81.8,30.19,SSW,202,0.0,14.7,90,0.01,,SKC,0.01,VWS V14.01,2013-07-17 19:19:00,
2013-07-17 15:20:00,84.9,82.2,30.19,SSW,194,0.0,14.7,92,0.01,,SKC,0.01,VWS V14.01,2013-07-17 19:20:00,
2013-07-17 15:21:00,85.0,82.1,30.19,SW,233,1.9,14.7,91,0.01,,SKC,0.01,VWS V14.01,2013-07-17 19:21:00,
2013-07-17 15:22:00,84.9,81.5,30.19,North,359,0.3,14.7,90,0.01,,SKC,0.01,VWS V14.01,2013-07-17 19:22:00,
2013-07-17 15:24:00,84.8,81.7,30.19,North,359,0.0,14.7,90,0.01,,SKC,0.01,VWS V14.01,2013-07-17 19:24:00,
2013-07-17 15:26:00,85.0,82.0,30.19,South,188,6.3,14.7,91,0.01,,SKC,0.01,VWS V14.01,2013-07-17 19:26:00,
2013-07-17 15:27:00,85.0,81.6,30.19,SSW,210,3.9,14.7,90,0.01,,SKC,0.01,VWS V14.01,2013-07-17 19:27:00,
2013-07-17 15:29:00,85.2,81.7,30.19,North,359,0.4,14.7,89,0.01,,SKC,0.01,VWS V14.01,2013-07-17 19:29:00,
2013-07-17 15:31:00,85.0,81.9,30.19,SSW,210,0.4,14.7,90,0.01,,SKC,0.01,VWS V14.01,2013-07-17 19:31:00,
2013-07-17 15:32:00,85.0,81.9,30.19,North,359,9.0,14.7,91,0.01,,SKC,0.01,VWS V14.01,2013-07-17 19:32:00,
2013-07-17 15:34:00,84.9,81.9,30.19,South,169,6.3,14.7,91,0.01,,SKC,0.01,VWS V14.01,2013-07-17 19:34:00,
2013-07-17 15:36:00,84.8,81.8,30.19,South,172,2.7,14.7,90,0.01,,SKC,0.01,VWS V14.01,2013-07-17 19:36:00,
2013-07-17 15:37:00,85.0,81.9,30.18,SSW,197,4.9,14.7,90,0.01,,SKC,0.01,VWS V14.01,2013-07-17 19:37:00,
2013-07-17 15:39:00,85.2,81.6,30.19,SSW,194,3.1,14.7,89,0.01,,SKC,0.01,VWS V14.01,2013-07-17 19:39:00,
2013-07-17 15:41:00,85.3,81.3,30.18,North,359,1.5,14.7,88,0.01,,SKC,0.01,VWS V14.01,2013-07-17 19:41:00,
2013-07-17 15:42:00,85.2,81.0,30.18,SW,228,7.8,14.7,87,0.01,,SKC,0.01,VWS V14.01,2013-07-17 19:42:00,
2013-07-17 15:43:00,85.1,81.5,30.18,North,359,0.0,14.7,88,0.01,,SKC,0.01,VWS V14.01,2013-07-17 19:43:00,
2013-07-17 15:44:00,84.9,81.5,30.18,SSW,200,0.4,14.7,90,0.01,,SKC,0.01,VWS V14.01,2013-07-17 19:44:00,
2013-07-17 15:45:00,84.9,81.6,30.18,North,359,1.4,14.7,90,0.01,,SKC,0.01,VWS V14.01,2013-07-17 19:45:00,
2013-07-17 15:47:00,85.1,82.0,30.18,North,359,0.0,14.7,91,0.01,,SKC,0.01,VWS V14.01,2013-07-17 19:47:00,
2013-07-17 15:48:00,85.2,81.9,30.18,North,359,0.0,14.7,90,0.01,,SKC,0.01,VWS V14.01,2013-07-17 19:48:00,
2013-07-17 15:49:00,85.3,81.7,30.18,North,359,0.0,14.7,89,0.01,,SKC,0.01,VWS V14.01,2013-07-17 19:49:00,
2013-07-17 15:50:00,85.3,81.7,30.18,North,359,0.0,14.7,89,0.01,,SKC,0.01,VWS V14.01,2013-07-17 19:50:00,
2013-07-17 15:52:00,85.5,82.4,30.18,North,359,0.9,14.7,91,0.01,,SKC,0.01,VWS V14.01,2013-07-17 19:52:00,
2013-07-17 15:53:00,85.4,82.1,30.18,North,359,7.3,14.7,90,0.01,,SKC,0.01,VWS V14.01,2013-07-17 19:53:00,
2013-07-17 15:54:00,85.4,82.7,30.18,South,190,0.0,14.7,92,0.01,,SKC,0.01,VWS V14.01,2013-07-17 19:54:00,
2013-07-17 15:56:00,85.2,81.9,30.18,North,359,1.3,14.7,90,0.01,,SKC,0.01,VWS V14.01,2013-07-17 19:56:00,
2013-07-17 15:57:00,85.1,82.4,30.18,North,359,0.0,14.7,92,0.01,,SKC,0.01,VWS V14.01,2013-07-17 19:57:00,
2013-07-17 15:58:00,85.1,82.0,30.18,SW,214,0.0,14.7,91,0.01,,SKC,0.01,VWS V14.01,2013-07-17 19:58:00,
2013-07-17 15:59:00,84.8,82.0,30.18,North,359,0.0,14.7,91,0.01,,SKC,0.01,VWS V14.01,2013-07-17 19:59:00,
2013-07-17 16:01:00,84.7,82.3,30.18,North,359,0.0,14.7,92,0.01,,SKC,0.01,VWS V14.01,2013-07-17 20:01:00,
2013-07-17 16:02:00,84.6,82.4,30.18,North,359,0.0,14.7,93,0.01,,SKC,0.01,VWS V14.01,2013-07-17 20:02:00,
2013-07-17 16:03:00,84.6,82.5,30.18,North,359,0.0,14.7,93,0.01,,SKC,0.01,VWS V14.01,2013-07-17 20:03:00,
2013-07-17 16:04:00,84.5,82.3,30.18,North,359,1.5,14.7,93,0.01,,SKC,0.01,VWS V14.01,2013-07-17 20:04:00,
2013-07-17 16:07:00,84.1,82.0,30.18,SSW,197,8.3,14.7,93,0.01,,SKC,0.01,VWS V14.01,2013-07-17 20:07:00,
2013-07-17 16:08:00,84.0,81.9,30.18,South,179,1.2,14.7,94,0.01,,SKC,0.01,VWS V14.01,2013-07-17 20:08:00,
2013-07-17 16:09:00,84.0,82.4,30.18,SW,218,0.0,14.7,95,0.01,,SKC,0.01,VWS V14.01,2013-07-17 20:09:00,
2013-07-17 16:12:00,83.7,81.9,30.17,SSW,198,2.8,14.7,94,0.01,,SKC,0.01,VWS V14.01,2013-07-17 20:12:00,
2013-07-17 16:13:00,83.7,82.1,30.17,South,181,4.8,14.7,95,0.01,,SKC,0.01,VWS V14.01,2013-07-17 20:13:00,
2013-07-17 16:15:00,83.4,81.7,30.17,North,359,0.2,14.7,94,0.01,,SKC,0.01,VWS V14.01,2013-07-17 20:15:00,
2013-07-17 16:17:00,83.4,81.9,30.17,North,359,0.2,14.7,95,0.01,,SKC,0.01,VWS V14.01,2013-07-17 20:17:00,
2013-07-17 16:18:00,83.3,82.1,30.17,SSW,202,5.8,14.7,96,0.01,,SKC,0.01,VWS V14.01,2013-07-17 20:18:00,
2013-07-17 16:20:00,83.3,82.1,30.17,SSW,211,0.0,14.7,96,0.01,,SKC,0.01,VWS V14.01,2013-07-17 20:20:00,
2013-07-17 16:22:00,83.2,82.2,30.17,North,359,1.1,14.7,97,0.01,,SKC,0.01,VWS V14.01,2013-07-17 20:22:00,
2013-07-17 16:23:00,83.2,82.2,30.17,North,359,0.0,14.7,97,0.01,,SKC,0.01,VWS V14.01,2013-07-17 20:23:00,
2013-07-17 16:25:00,83.0,82.0,30.17,North,359,0.0,14.7,97,0.01,,SKC,0.01,VWS V14.01,2013-07-17 20:25:00,
2013-07-17 16:27:00,82.9,82.0,30.17,SW,235,6.8,14.7,97,0.01,,SKC,0.01,VWS V14.01,2013-07-17 20:27:00,
2013-07-17 16:28:00,82.9,82.0,30.17,SSW,211,0.0,14.7,97,0.01,,SKC,0.01,VWS V14.01,2013-07-17 20:28:00,
2013-07-17 16:30:00,82.8,81.9,30.17,North,359,1.2,14.7,97,0.01,,SKC,0.01,VWS V14.01,2013-07-17 20:30:00,
2013-07-17 16:33:00,82.8,82.0,30.16,SW,224,0.0,14.7,97,0.01,,SKC,0.01,VWS V14.01,2013-07-17 20:33:00,
2013-07-17 16:34:00,82.7,81.7,30.16,SW,224,3.1,14.7,97,0.01,,SKC,0.01,VWS V14.01,2013-07-17 20:34:00,
2013-07-17 16:36:00,82.8,82.0,30.16,North,359,0.6,14.7,98,0.01,,SKC,0.01,VWS V14.01,2013-07-17 20:36:00,
2013-07-17 16:38:00,82.8,82.0,30.16,North,359,0.0,14.7,97,0.01,,SKC,0.01,VWS V14.01,2013-07-17 20:38:00,
2013-07-17 16:39:00,82.9,82.1,30.16,SSE,162,2.6,14.7,98,0.01,,SKC,0.01,VWS V14.01,2013-07-17 20:39:00,
2013-07-17 16:41:00,83.0,82.2,30.16,SW,228,4.2,14.7,97,0.01,,SKC,0.01,VWS V14.01,2013-07-17 20:41:00,
2013-07-17 16:43:00,83.0,82.1,30.17,SSW,194,5.8,14.7,97,0.01,,SKC,0.01,VWS V14.01,2013-07-17 20:43:00,
2013-07-17 16:44:00,83.0,82.1,30.16,SSW,194,0.0,14.7,97,0.01,,SKC,0.01,VWS V14.01,2013-07-17 20:44:00,
2013-07-17 16:46:00,83.1,82.2,30.17,SW,219,6.6,14.7,97,0.01,,SKC,0.01,VWS V14.01,2013-07-17 20:46:00,
2013-07-17 16:48:00,83.1,82.1,30.17,WSW,239,1.3,14.7,97,0.01,,SKC,0.01,VWS V14.01,2013-07-17 20:48:00,
2013-07-17 16:49:00,83.1,82.1,30.16,SSW,195,9.3,14.7,97,0.01,,SKC,0.01,VWS V14.01,2013-07-17 20:49:00,
2013-07-17 16:51:00,82.8,81.6,30.16,South,174,5.9,14.7,96,0.01,,SKC,0.01,VWS V14.01,2013-07-17 20:51:00,
2013-07-17 16:53:00,82.6,81.7,30.16,SSW,202,6.0,14.7,97,0.01,,SKC,0.01,VWS V14.01,2013-07-17 20:53:00,
2013-07-17 16:54:00,82.6,81.7,30.16,SSW,212,7.7,14.7,97,0.01,,SKC,0.01,VWS V14.01,2013-07-17 20:54:00,
2013-07-17 16:56:00,82.6,81.8,30.15,South,191,5.2,14.7,98,0.01,,SKC,0.01,VWS V14.01,2013-07-17 20:56:00,
2013-07-17 16:58:00,82.5,81.4,30.15,North,359,0.0,14.7,97,0.01,,SKC,0.01,VWS V14.01,2013-07-17 20:58:00,
2013-07-17 16:59:00,82.5,81.4,30.15,SSW,205,5.0,14.7,97,0.01,,SKC,0.01,VWS V14.01,2013-07-17 20:59:00,
2013-07-17 17:02:00,82.4,81.6,30.15,SSW,194,0.0,14.7,98,0.01,,SKC,0.01,VWS V14.01,2013-07-17 21:02:00,
2013-07-17 17:03:00,82.4,81.7,30.15,North,359,0.0,14.7,98,0.01,,SKC,0.01,VWS V14.01,2013-07-17 21:03:00,
2013-07-17 17:04:00,82.4,81.7,30.15,North,359,0.0,14.7,98,0.01,,SKC,0.01,VWS V14.01,2013-07-17 21:04:00,
2013-07-17 17:05:00,82.4,81.7,30.16,North,359,0.0,14.7,98,0.01,,SKC,0.01,VWS V14.01,2013-07-17 21:05:00,
2013-07-17 17:07:00,82.3,81.3,30.16,North,359,0.2,14.7,97,0.01,,SKC,0.01,VWS V14.01,2013-07-17 21:07:00,
2013-07-17 17:08:00,82.3,81.2,30.16,SSW,201,7.5,14.7,97,0.01,,SKC,0.01,VWS V14.01,2013-07-17 21:08:00,
2013-07-17 17:09:00,82.3,81.2,30.16,North,359,3.5,14.7,96,0.01,,SKC,0.01,VWS V14.01,2013-07-17 21:09:00,
2013-07-17 17:10:00,82.3,81.2,30.17,North,359,0.0,14.7,96,0.01,,SKC,0.01,VWS V14.01,2013-07-17 21:10:00,
2013-07-17 17:12:00,82.2,81.1,30.16,North,359,0.0,14.7,96,0.01,,SKC,0.01,VWS V14.01,2013-07-17 21:12:00,
2013-07-17 17:14:00,82.3,81.2,30.16,North,359,0.0,14.7,96,0.01,,SKC,0.01,VWS V14.01,2013-07-17 21:14:00,
2013-07-17 17:15:00,82.3,81.1,30.16,North,359,0.0,14.7,96,0.01,,SKC,0.01,VWS V14.01,2013-07-17 21:15:00,
2013-07-17 17:17:00,82.2,81.1,30.16,North,359,0.0,14.7,96,0.01,,SKC,0.01,VWS V14.01,2013-07-17 21:17:00,
2013-07-17 17:19:00,82.3,81.2,30.16,North,359,0.0,14.7,96,0.01,,SKC,0.01,VWS V14.01,2013-07-17 21:19:00,
2013-07-17 17:20:00,82.3,81.2,30.16,North,359,0.0,14.7,96,0.01,,SKC,0.01,VWS V14.01,2013-07-17 21:20:00,
2013-07-17 17:22:00,82.3,81.2,30.16,North,359,0.0,14.7,96,0.01,,SKC,0.01,VWS V14.01,2013-07-17 21:22:00,
2013-07-17 17:24:00,82.4,81.2,30.16,North,359,0.0,14.7,96,0.01,,SKC,0.01,VWS V14.01,2013-07-17 21:24:00,
2013-07-17 17:25:00,82.3,81.1,30.16,North,359,0.0,14.7,96,0.01,,SKC,0.01,VWS V14.01,2013-07-17 21:25:00,
2013-07-17 17:26:00,82.4,81.2,30.16,North,359,0.0,14.7,96,0.01,,SKC,0.01,VWS V14.01,2013-07-17 21:26:00,
2013-07-17 17:27:00,82.4,81.2,30.16,North,359,0.0,14.7,96,0.01,,SKC,0.01,VWS V14.01,2013-07-17 21:27:00,
2013-07-17 17:30:00,82.4,81.1,30.16,North,359,0.0,14.7,96,0.01,,SKC,0.01,VWS V14.01,2013-07-17 21:30:00,
2013-07-17 17:31:00,82.4,81.1,30.16,North,359,0.0,14.7,96,0.01,,SKC,0.01,VWS V14.01,2013-07-17 21:31:00,
2013-07-17 17:33:00,82.4,81.1,30.16,North,359,0.0,14.7,96,0.01,,SKC,0.01,VWS V14.01,2013-07-17 21:33:00,
2013-07-17 17:35:00,82.4,81.1,30.15,North,359,0.0,14.7,96,0.01,,SKC,0.01,VWS V14.01,2013-07-17 21:35:00,
2013-07-17 17:36:00,82.3,81.1,30.15,North,359,0.0,14.7,96,0.01,,SKC,0.01,VWS V14.01,2013-07-17 21:36:00,
2013-07-17 17:38:00,82.2,81.0,30.15,North,359,0.0,14.7,96,0.01,,SKC,0.01,VWS V14.01,2013-07-17 21:38:00,
2013-07-17 17:40:00,82.3,81.2,30.15,SW,215,0.0,14.7,96,0.01,,SKC,0.01,VWS V14.01,2013-07-17 21:40:00,
2013-07-17 17:41:00,82.2,81.1,30.15,South,169,3.1,14.7,96,0.01,,SKC,0.01,VWS V14.01,2013-07-17 21:41:00,
2013-07-17 17:43:00,82.3,81.2,30.16,SW,221,0.0,14.7,96,0.01,,SKC,0.01,VWS V14.01,2013-07-17 21:43:00,
2013-07-17 17:45:00,82.3,81.2,30.16,SW,221,0.0,14.7,96,0.01,,SKC,0.01,VWS V14.01,2013-07-17 21:45:00,
2013-07-17 17:46:00,82.3,81.1,30.16,SW,221,0.0,14.7,96,0.01,,SKC,0.01,VWS V14.01,2013-07-17 21:46:00,
2013-07-17 17:47:00,82.3,81.1,30.16,SW,221,0.0,14.7,96,0.01,,SKC,0.01,VWS V14.01,2013-07-17 21:47:00,
2013-07-17 17:48:00,82.4,81.3,30.15,SW,221,0.0,14.7,96,0.01,,SKC,0.01,VWS V14.01,2013-07-17 21:48:00,
2013-07-17 17:50:00,82.3,81.0,30.16,SW,221,0.0,14.7,96,0.01,,SKC,0.01,VWS V14.01,2013-07-17 21:50:00,
2013-07-17 17:51:00,82.2,80.9,30.16,SW,221,0.0,14.7,96,0.01,,SKC,0.01,VWS V14.01,2013-07-17 21:51:00,
2013-07-17 17:52:00,82.2,81.0,30.16,SW,221,0.0,14.7,96,0.01,,SKC,0.01,VWS V14.01,2013-07-17 21:52:00,
2013-07-17 17:53:00,82.2,81.1,30.16,SSW,205,0.0,14.7,96,0.01,,SKC,0.01,VWS V14.01,2013-07-17 21:53:00,
2013-07-17 17:55:00,82.2,80.9,30.16,North,359,3.3,14.7,96,0.01,,SKC,0.01,VWS V14.01,2013-07-17 21:55:00,
2013-07-17 17:56:00,82.2,80.9,30.16,North,359,0.0,14.7,96,0.01,,SKC,0.01,VWS V14.01,2013-07-17 21:56:00,
2013-07-17 17:57:00,82.1,80.9,30.16,North,359,0.0,14.7,96,0.01,,SKC,0.01,VWS V14.01,2013-07-17 21:57:00,
2013-07-17 17:58:00,82.2,80.9,30.16,North,359,0.0,14.7,96,0.01,,SKC,0.01,VWS V14.01,2013-07-17 21:58:00,
2013-07-17 18:00:00,82.1,80.8,30.16,SW,232,0.0,14.7,96,0.01,,SKC,0.01,VWS V14.01,2013-07-17 22:00:00,
2013-07-17 18:01:00,82.2,80.9,30.16,SW,232,0.0,14.7,96,0.01,,SKC,0.01,VWS V14.01,2013-07-17 22:01:00,
2013-07-17 18:02:00,82.2,81.0,30.15,SW,233,8.9,14.7,96,0.01,,SKC,0.01,VWS V14.01,2013-07-17 22:02:00,
2013-07-17 18:03:00,82.2,81.0,30.15,SW,233,0.0,14.7,96,0.01,,SKC,0.01,VWS V14.01,2013-07-17 22:03:00,
2013-07-17 18:05:00,82.3,80.8,30.15,SW,214,0.0,14.7,96,0.01,,SKC,0.01,VWS V14.01,2013-07-17 22:05:00,
2013-07-17 18:06:00,82.2,80.9,30.15,WSW,255,0.4,14.7,96,0.01,,SKC,0.01,VWS V14.01,2013-07-17 22:06:00,
2013-07-17 18:07:00,82.2,80.9,30.15,SW,224,0.0,14.7,96,0.01,,SKC,0.01,VWS V14.01,2013-07-17 22:07:00,
2013-07-17 18:08:00,82.2,80.9,30.15,SW,224,0.0,14.7,96,0.01,,SKC,0.01,VWS V14.01,2013-07-17 22:08:00,
2013-07-17 18:10:00,82.3,81.0,30.15,SW,224,0.0,14.7,96,0.01,,SKC,0.01,VWS V14.01,2013-07-17 22:10:00,
2013-07-17 18:11:00,82.2,80.9,30.15,SW,224,0.0,14.7,96,0.01,,SKC,0.01,VWS V14.01,2013-07-17 22:11:00,
2013-07-17 18:12:00,82.3,81.0,30.15,SW,224,0.0,14.7,96,0.01,,SKC,0.01,VWS V14.01,2013-07-17 22:12:00,
2013-07-17 18:13:00,82.3,81.0,30.15,SW,224,0.0,14.7,96,0.01,,SKC,0.01,VWS V14.01,2013-07-17 22:13:00,
2013-07-17 18:16:00,82.2,80.8,30.15,SW,224,0.0,14.7,96,0.01,,SKC,0.01,VWS V14.01,2013-07-17 22:16:00,
2013-07-17 18:17:00,82.3,80.9,30.15,SW,224,0.0,14.7,96,0.01,,SKC,0.01,VWS V14.01,2013-07-17 22:17:00,
2013-07-17 18:19:00,82.3,80.9,30.15,SW,224,0.0,14.7,96,0.01,,SKC,0.01,VWS V14.01,2013-07-17 22:19:00,
2013-07-17 18:21:00,82.4,80.9,30.15,SW,224,0.0,14.7,96,0.01,,SKC,0.01,VWS V14.01,2013-07-17 22:21:00,
2013-07-17 18:23:00,82.2,80.8,30.15,SW,224,0.0,14.7,95,0.01,,SKC,0.01,VWS V14.01,2013-07-17 22:23:00,
2013-07-17 18:24:00,82.2,80.7,30.14,SW,224,0.0,14.7,95,0.01,,SKC,0.01,VWS V14.01,2013-07-17 22:24:00,
2013-07-17 18:26:00,82.2,80.7,30.14,SW,224,0.0,14.7,95,0.01,,SKC,0.01,VWS V14.01,2013-07-17 22:26:00,
2013-07-17 18:27:00,82.2,80.7,30.14,SW,224,0.0,14.7,95,0.01,,SKC,0.01,VWS V14.01,2013-07-17 22:27:00,
2013-07-17 18:28:00,82.3,80.9,30.13,SW,224,0.0,14.7,95,0.01,,SKC,0.01,VWS V14.01,2013-07-17 22:28:00,
2013-07-17 18:29:00,82.2,80.8,30.14,SW,224,0.0,14.7,96,0.01,,SKC,0.01,VWS V14.01,2013-07-17 22:29:00,
2013-07-17 18:31:00,82.2,80.8,30.14,SW,224,0.0,14.7,96,0.01,,SKC,0.01,VWS V14.01,2013-07-17 22:31:00,
2013-07-17 18:32:00,82.2,80.8,30.14,SW,224,0.0,14.7,96,0.01,,SKC,0.01,VWS V14.01,2013-07-17 22:32:00,
2013-07-17 18:33:00,82.2,80.8,30.14,SW,224,0.0,14.7,95,0.01,,SKC,0.01,VWS V14.01,2013-07-17 22:33:00,
2013-07-17 18:34:00,82.2,80.7,30.14,SW,224,0.0,14.7,95,0.01,,SKC,0.01,VWS V14.01,2013-07-17 22:34:00,
2013-07-17 18:36:00,82.2,80.8,30.13,SW,224,0.0,14.7,95,0.01,,SKC,0.01,VWS V14.01,2013-07-17 22:36:00,
2013-07-17 18:37:00,82.2,80.8,30.13,SW,224,0.0,14.7,95,0.01,,SKC,0.01,VWS V14.01,2013-07-17 22:37:00,
2013-07-17 18:38:00,82.2,80.9,30.13,SW,224,0.0,14.7,95,0.01,,SKC,0.01,VWS V14.01,2013-07-17 22:38:00,
2013-07-17 18:40:00,82.3,80.9,30.13,SW,224,0.0,14.7,96,0.01,,SKC,0.01,VWS V14.01,2013-07-17 22:40:00,
2013-07-17 18:41:00,82.2,80.8,30.13,SW,224,0.0,14.7,96,0.01,,SKC,0.01,VWS V14.01,2013-07-17 22:41:00,
2013-07-17 18:42:00,82.3,80.9,30.13,SW,224,0.0,14.7,95,0.01,,SKC,0.01,VWS V14.01,2013-07-17 22:42:00,
2013-07-17 18:43:00,82.1,80.6,30.13,SW,224,0.0,14.7,95,0.01,,SKC,0.01,VWS V14.01,2013-07-17 22:43:00,
2013-07-17 18:45:00,82.2,80.7,30.13,SW,224,0.0,14.7,95,0.01,,SKC,0.01,VWS V14.01,2013-07-17 22:45:00,
2013-07-17 18:46:00,82.3,80.7,30.13,SW,224,0.0,14.7,95,0.01,,SKC,0.01,VWS V14.01,2013-07-17 22:46:00,
2013-07-17 18:47:00,82.2,80.7,30.13,SW,224,0.0,14.7,95,0.01,,SKC,0.01,VWS V14.01,2013-07-17 22:47:00,
2013-07-17 18:48:00,82.2,80.8,30.12,SW,224,0.0,14.7,95,0.01,,SKC,0.01,VWS V14.01,2013-07-17 22:48:00,
2013-07-17 18:50:00,82.2,80.7,30.13,SW,224,0.0,14.7,95,0.01,,SKC,0.01,VWS V14.01,2013-07-17 22:50:00,
2013-07-17 18:52:00,82.2,80.8,30.13,SW,224,0.0,14.7,96,0.01,,SKC,0.01,VWS V14.01,2013-07-17 22:52:00,
2013-07-17 18:53:00,82.1,80.6,30.13,SW,224,0.0,14.7,95,0.01,,SKC,0.01,VWS V14.01,2013-07-17 22:53:00,
2013-07-17 18:55:00,82.2,80.7,30.13,SW,224,0.0,14.7,95,0.01,,SKC,0.01,VWS V14.01,2013-07-17 22:55:00,
2013-07-17 18:57:00,82.2,80.7,30.12,North,359,6.6,14.7,95,0.01,,SKC,0.01,VWS V14.01,2013-07-17 22:57:00,
2013-07-17 18:58:00,82.2,80.4,30.12,North,359,0.0,14.7,94,0.01,,SKC,0.01,VWS V14.01,2013-07-17 22:58:00,
2013-07-17 19:00:00,82.2,80.5,30.13,South,180,0.0,14.7,94,0.01,,SKC,0.01,VWS V14.01,2013-07-17 23:00:00,
2013-07-17 19:02:00,82.4,80.6,30.13,South,180,0.0,14.7,94,0.01,,SKC,0.01,VWS V14.01,2013-07-17 23:02:00,
2013-07-17 19:03:00,82.3,80.6,30.13,South,180,0.0,14.7,94,0.01,,SKC,0.01,VWS V14.01,2013-07-17 23:03:00,
2013-07-17 19:05:00,82.4,80.8,30.13,South,180,0.0,14.7,95,0.01,,SKC,0.01,VWS V14.01,2013-07-17 23:05:00,
2013-07-17 19:07:00,82.4,80.9,30.13,South,180,0.0,14.7,95,0.01,,SKC,0.01,VWS V14.01,2013-07-17 23:07:00,
2013-07-17 19:08:00,82.4,80.7,30.13,South,180,0.0,14.7,95,0.01,,SKC,0.01,VWS V14.01,2013-07-17 23:08:00,
2013-07-17 19:10:00,82.3,80.5,30.13,South,180,0.0,14.7,94,0.01,,SKC,0.01,VWS V14.01,2013-07-17 23:10:00,
2013-07-17 19:12:00,82.3,80.5,30.13,South,180,0.0,14.7,94,0.01,,SKC,0.01,VWS V14.01,2013-07-17 23:12:00,
2013-07-17 19:13:00,82.3,80.5,30.13,South,180,0.0,14.7,94,0.01,,SKC,0.01,VWS V14.01,2013-07-17 23:13:00,
2013-07-17 19:14:00,82.3,80.6,30.13,South,180,0.0,14.7,95,0.01,,SKC,0.01,VWS V14.01,2013-07-17 23:14:00,
2013-07-17 19:15:00,82.3,80.3,30.13,South,180,0.0,14.7,94,0.01,,SKC,0.01,VWS V14.01,2013-07-17 23:15:00,
2013-07-17 19:18:00,82.3,80.3,30.13,South,180,0.0,14.7,94,0.01,,SKC,0.01,VWS V14.01,2013-07-17 23:18:00,
2013-07-17 19:19:00,82.3,80.2,30.13,South,180,0.0,14.7,94,0.01,,SKC,0.01,VWS V14.01,2013-07-17 23:19:00,
2013-07-17 19:20:00,82.2,80.0,30.13,South,180,0.0,14.7,93,0.01,,SKC,0.01,VWS V14.01,2013-07-17 23:20:00,
2013-07-17 19:23:00,82.2,79.6,30.13,South,180,0.0,14.7,92,0.01,,SKC,0.01,VWS V14.01,2013-07-17 23:23:00,
2013-07-17 19:24:00,82.2,79.7,30.13,South,180,0.0,14.7,92,0.01,,SKC,0.01,VWS V14.01,2013-07-17 23:24:00,
2013-07-17 19:25:00,82.2,79.7,30.13,South,180,0.0,14.7,92,0.01,,SKC,0.01,VWS V14.01,2013-07-17 23:25:00,
2013-07-17 19:28:00,82.1,79.7,30.13,South,180,0.0,14.7,92,0.01,,SKC,0.01,VWS V14.01,2013-07-17 23:28:00,
2013-07-17 19:29:00,82.2,79.8,30.13,South,180,0.0,14.7,92,0.01,,SKC,0.01,VWS V14.01,2013-07-17 23:29:00,
2013-07-17 19:30:00,82.1,79.8,30.13,South,180,0.0,14.7,93,0.01,,SKC,0.01,VWS V14.01,2013-07-17 23:30:00,
2013-07-17 19:33:00,82.2,79.9,30.13,South,180,0.0,14.7,93,0.01,,SKC,0.01,VWS V14.01,2013-07-17 23:33:00,
2013-07-17 19:34:00,82.1,79.8,30.13,South,180,0.0,14.7,93,0.01,,SKC,0.01,VWS V14.01,2013-07-17 23:34:00,
2013-07-17 19:36:00,82.1,79.9,30.13,South,180,0.0,14.7,93,0.01,,SKC,0.01,VWS V14.01,2013-07-17 23:36:00,
2013-07-17 19:38:00,82.2,79.9,30.13,South,180,0.0,14.7,93,0.01,,SKC,0.01,VWS V14.01,2013-07-17 23:38:00,
2013-07-17 19:39:00,82.0,79.7,30.13,South,180,0.0,14.7,93,0.01,,SKC,0.01,VWS V14.01,2013-07-17 23:39:00,
2013-07-17 19:41:00,82.1,79.7,30.13,South,180,0.0,14.7,92,0.01,,SKC,0.01,VWS V14.01,2013-07-17 23:41:00,
2013-07-17 19:44:00,81.9,79.4,30.13,South,180,0.0,14.7,92,0.01,,SKC,0.01,VWS V14.01,2013-07-17 23:44:00,
2013-07-17 19:45:00,81.9,79.4,30.13,South,180,0.0,14.7,92,0.01,,SKC,0.01,VWS V14.01,2013-07-17 23:45:00,
2013-07-17 19:46:00,81.9,79.6,30.13,South,180,0.0,14.7,92,0.01,,SKC,0.01,VWS V14.01,2013-07-17 23:46:00,
2013-07-17 19:49:00,82.0,79.7,30.13,South,180,0.0,14.7,93,0.01,,SKC,0.01,VWS V14.01,2013-07-17 23:49:00,
2013-07-17 19:50:00,81.9,79.6,30.13,South,180,0.0,14.7,93,0.01,,SKC,0.01,VWS V14.01,2013-07-17 23:50:00,
2013-07-17 19:51:00,82.0,79.6,30.13,South,180,0.0,14.7,92,0.01,,SKC,0.01,VWS V14.01,2013-07-17 23:51:00,
2013-07-17 19:54:00,82.0,79.7,30.13,South,180,0.0,14.7,93,0.01,,SKC,0.01,VWS V14.01,2013-07-17 23:54:00,
2013-07-17 19:55:00,82.0,79.7,30.13,South,180,0.0,14.7,93,0.01,,SKC,0.01,VWS V14.01,2013-07-17 23:55:00,
2013-07-17 19:56:00,82.0,79.6,30.13,South,180,0.0,14.7,92,0.01,,SKC,0.01,VWS V14.01,2013-07-17 23:56:00,
2013-07-17 19:59:00,82.0,79.5,30.13,South,180,0.0,14.7,92,0.01,,SKC,0.01,VWS V14.01,2013-07-17 23:59:00,
2013-07-17 20:00:00,82.0,79.5,30.13,South,180,0.0,14.7,92,0.01,,SKC,0.01,VWS V14.01,2013-07-18 00:00:00,
2013-07-17 20:01:00,82.0,79.5,30.13,South,180,0.0,14.7,92,0.01,,SKC,0.01,VWS V14.01,2013-07-18 00:01:00,
2013-07-17 20:04:00,81.9,79.5,30.12,South,180,0.0,14.7,92,0.01,,SKC,0.01,VWS V14.01,2013-07-18 00:04:00,
2013-07-17 20:05:00,82.0,79.6,30.13,South,180,0.0,14.7,92,0.01,,SKC,0.01,VWS V14.01,2013-07-18 00:05:00,
2013-07-17 20:06:00,82.0,79.7,30.13,South,180,0.0,14.7,93,0.01,,SKC,0.01,VWS V14.01,2013-07-18 00:06:00,
2013-07-17 20:09:00,82.0,79.8,30.13,South,180,0.0,14.7,93,0.01,,SKC,0.01,VWS V14.01,2013-07-18 00:09:00,
2013-07-17 20:10:00,81.9,79.7,30.12,South,180,0.0,14.7,93,0.01,,SKC,0.01,VWS V14.01,2013-07-18 00:10:00,
2013-07-17 20:12:00,81.9,79.8,30.13,South,180,0.0,14.7,93,0.01,,SKC,0.01,VWS V14.01,2013-07-18 00:12:00,
2013-07-17 20:14:00,81.8,79.8,30.13,South,180,0.0,14.7,94,0.01,,SKC,0.01,VWS V14.01,2013-07-18 00:14:00,
2013-07-17 20:16:00,81.8,79.9,30.13,South,180,0.0,14.7,94,0.01,,SKC,0.01,VWS V14.01,2013-07-18 00:16:00,
2013-07-17 20:17:00,81.8,79.9,30.13,South,180,0.0,14.7,94,0.01,,SKC,0.01,VWS V14.01,2013-07-18 00:17:00,
2013-07-17 20:19:00,81.7,79.9,30.13,South,180,0.0,14.7,94,0.01,,SKC,0.01,VWS V14.01,2013-07-18 00:19:00,
2013-07-17 20:20:00,81.7,79.9,30.13,South,180,0.0,14.7,94,0.01,,SKC,0.01,VWS V14.01,2013-07-18 00:20:00,
2013-07-17 20:21:00,81.6,79.9,30.13,South,180,0.0,14.7,94,0.01,,SKC,0.01,VWS V14.01,2013-07-18 00:21:00,
2013-07-17 20:22:00,81.6,79.9,30.13,South,180,0.0,14.7,95,0.01,,SKC,0.01,VWS V14.01,2013-07-18 00:22:00,
2013-07-17 20:24:00,81.4,79.9,30.13,South,180,0.0,14.7,95,0.01,,SKC,0.01,VWS V14.01,2013-07-18 00:24:00,
2013-07-17 20:25:00,81.4,79.9,30.12,South,180,0.0,14.7,95,0.01,,SKC,0.01,VWS V14.01,2013-07-18 00:25:00,
2013-07-17 20:26:00,81.5,80.0,30.13,South,180,0.0,14.7,95,0.01,,SKC,0.01,VWS V14.01,2013-07-18 00:26:00,
2013-07-17 20:27:00,81.4,79.9,30.13,South,180,0.0,14.7,95,0.01,,SKC,0.01,VWS V14.01,2013-07-18 00:27:00,
2013-07-17 20:29:00,81.2,79.8,30.13,South,180,0.0,14.7,96,0.01,,SKC,0.01,VWS V14.01,2013-07-18 00:29:00,
2013-07-17 20:30:00,81.3,79.9,30.13,South,180,0.0,14.7,96,0.01,,SKC,0.01,VWS V14.01,2013-07-18 00:30:00,
2013-07-17 20:31:00,81.1,79.8,30.13,South,180,0.0,14.7,96,0.01,,SKC,0.01,VWS V14.01,2013-07-18 00:31:00,
2013-07-17 20:32:00,81.0,79.7,30.13,South,180,0.0,14.7,96,0.01,,SKC,0.01,VWS V14.01,2013-07-18 00:32:00,
2013-07-17 20:35:00,81.0,79.8,30.13,South,180,0.0,14.7,96,0.01,,SKC,0.01,VWS V14.01,2013-07-18 00:35:00,
2013-07-17 20:36:00,80.9,79.7,30.13,South,180,0.0,14.7,96,0.01,,SKC,0.01,VWS V14.01,2013-07-18 00:36:00,
2013-07-17 20:38:00,80.9,79.8,30.13,South,180,0.0,14.7,96,0.01,,SKC,0.01,VWS V14.01,2013-07-18 00:38:00,
2013-07-17 20:40:00,80.7,79.6,30.13,South,180,0.0,14.7,96,0.01,,SKC,0.01,VWS V14.01,2013-07-18 00:40:00,
2013-07-17 20:41:00,80.7,79.6,30.12,South,180,0.0,14.7,96,0.01,,SKC,0.01,VWS V14.01,2013-07-18 00:41:00,
2013-07-17 20:43:00,80.6,79.5,30.13,South,180,0.0,14.7,96,0.01,,SKC,0.01,VWS V14.01,2013-07-18 00:43:00,
2013-07-17 20:45:00,80.4,79.3,30.12,South,180,0.0,14.7,97,0.01,,SKC,0.01,VWS V14.01,2013-07-18 00:45:00,
2013-07-17 20:46:00,80.3,79.3,30.13,South,180,0.0,14.7,97,0.01,,SKC,0.01,VWS V14.01,2013-07-18 00:46:00,
2013-07-17 20:47:00,80.3,79.3,30.13,South,180,0.0,14.7,97,0.01,,SKC,0.01,VWS V14.01,2013-07-18 00:47:00,
2013-07-17 20:48:00,80.5,79.5,30.13,South,180,0.0,14.7,97,0.01,,SKC,0.01,VWS V14.01,2013-07-18 00:48:00,
2013-07-17 20:50:00,80.4,79.5,30.13,South,180,0.0,14.7,97,0.01,,SKC,0.01,VWS V14.01,2013-07-18 00:50:00,
2013-07-17 20:51:00,80.4,79.5,30.13,South,180,0.0,14.7,97,0.01,,SKC,0.01,VWS V14.01,2013-07-18 00:51:00,
2013-07-17 20:52:00,80.3,79.4,30.13,South,180,0.0,14.7,97,0.01,,SKC,0.01,VWS V14.01,2013-07-18 00:52:00,
2013-07-17 20:53:00,80.3,79.4,30.13,South,180,0.0,14.7,97,0.01,,SKC,0.01,VWS V14.01,2013-07-18 00:53:00,
2013-07-17 20:55:00,80.2,79.3,30.13,South,180,0.0,14.7,97,0.01,,SKC,0.01,VWS V14.01,2013-07-18 00:55:00,
2013-07-17 20:57:00,80.2,79.3,30.13,South,180,0.0,14.7,97,0.01,,SKC,0.01,VWS V14.01,2013-07-18 00:57:00,
2013-07-17 20:58:00,80.1,79.2,30.13,South,180,0.0,14.7,97,0.01,,SKC,0.01,VWS V14.01,2013-07-18 00:58:00,
2013-07-17 21:00:00,80.2,79.4,30.13,South,180,0.0,14.7,97,0.01,,SKC,0.01,VWS V14.01,2013-07-18 01:00:00,
2013-07-17 21:02:00,80.2,79.4,30.13,South,180,0.0,14.7,98,0.01,,SKC,0.01,VWS V14.01,2013-07-18 01:02:00,
2013-07-17 21:03:00,80.2,79.5,30.13,South,180,0.0,14.7,98,0.01,,SKC,0.01,VWS V14.01,2013-07-18 01:03:00,
2013-07-17 21:05:00,80.1,79.4,30.13,South,180,0.0,14.7,98,0.01,,SKC,0.01,VWS V14.01,2013-07-18 01:05:00,
2013-07-17 21:07:00,80.1,79.4,30.13,South,180,0.0,14.7,98,0.01,,SKC,0.01,VWS V14.01,2013-07-18 01:07:00,
2013-07-17 21:08:00,80.1,79.4,30.13,South,180,0.0,14.7,98,0.01,,SKC,0.01,VWS V14.01,2013-07-18 01:08:00,
2013-07-17 21:11:00,80.0,79.4,30.13,South,180,0.0,14.7,98,0.01,,SKC,0.01,VWS V14.01,2013-07-18 01:11:00,
2013-07-17 21:12:00,79.9,79.3,30.13,South,180,0.0,14.7,98,0.01,,SKC,0.01,VWS V14.01,2013-07-18 01:12:00,
2013-07-17 21:13:00,80.0,79.4,30.13,South,180,0.0,14.7,98,0.01,,SKC,0.01,VWS V14.01,2013-07-18 01:13:00,
2013-07-17 21:16:00,79.9,79.3,30.14,South,180,0.0,14.7,98,0.01,,SKC,0.01,VWS V14.01,2013-07-18 01:16:00,
2013-07-17 21:17:00,79.9,79.4,30.14,South,180,0.0,14.7,98,0.01,,SKC,0.01,VWS V14.01,2013-07-18 01:17:00,
2013-07-17 21:18:00,79.9,79.4,30.14,South,180,0.0,14.7,98,0.01,,SKC,0.01,VWS V14.01,2013-07-18 01:18:00,
2013-07-17 21:21:00,79.7,79.4,30.14,South,180,0.0,14.7,99,0.01,,SKC,0.01,VWS V14.01,2013-07-18 01:21:00,
2013-07-17 21:22:00,79.7,79.5,30.14,South,180,0.0,14.7,99,0.01,,SKC,0.01,VWS V14.01,2013-07-18 01:22:00,
2013-07-17 21:23:00,79.7,79.5,30.13,South,180,0.0,14.7,99,0.01,,SKC,0.01,VWS V14.01,2013-07-18 01:23:00,
2013-07-17 21:26:00,79.5,79.2,30.14,South,180,0.0,14.7,99,0.01,,SKC,0.01,VWS V14.01,2013-07-18 01:26:00,
2013-07-17 21:27:00,79.4,79.2,30.14,South,180,0.0,14.7,100,0.01,,SKC,0.01,VWS V14.01,2013-07-18 01:27:00,
2013-07-17 21:28:00,79.4,79.2,30.14,South,180,0.0,14.7,100,0.01,,SKC,0.01,VWS V14.01,2013-07-18 01:28:00,
2013-07-17 21:31:00,79.3,79.2,30.14,South,180,0.0,14.7,100,0.01,,SKC,0.01,VWS V14.01,2013-07-18 01:31:00,
2013-07-17 21:32:00,79.3,79.3,30.14,South,180,0.0,14.7,100,0.01,,SKC,0.01,VWS V14.01,2013-07-18 01:32:00,
2013-07-17 21:33:00,79.3,79.3,30.14,South,180,0.0,14.7,100,0.01,,SKC,0.01,VWS V14.01,2013-07-18 01:33:00,
2013-07-17 21:34:00,79.3,79.3,30.14,South,180,0.0,14.7,100,0.01,,SKC,0.01,VWS V14.01,2013-07-18 01:34:00,
2013-07-17 21:36:00,79.2,79.2,30.15,South,180,0.0,14.7,100,0.01,,SKC,0.01,VWS V14.01,2013-07-18 01:36:00,
2013-07-17 21:37:00,79.1,79.1,30.15,South,180,0.0,14.7,100,0.01,,SKC,0.01,VWS V14.01,2013-07-18 01:37:00,
2013-07-17 21:38:00,79.1,79.1,30.15,South,180,0.0,14.7,100,0.01,,SKC,0.01,VWS V14.01,2013-07-18 01:38:00,
2013-07-17 21:39:00,79.1,79.1,30.15,South,180,0.0,14.7,100,0.01,,SKC,0.01,VWS V14.01,2013-07-18 01:39:00,
2013-07-17 21:41:00,79.0,79.0,30.15,South,180,0.0,14.7,100,0.01,,SKC,0.01,VWS V14.01,2013-07-18 01:41:00,
2013-07-17 21:43:00,79.0,79.0,30.15,South,180,0.0,14.7,100,0.01,,SKC,0.01,VWS V14.01,2013-07-18 01:43:00,
2013-07-17 21:44:00,79.0,79.0,30.15,South,180,0.0,14.7,100,0.01,,SKC,0.01,VWS V14.01,2013-07-18 01:44:00,
2013-07-17 21:46:00,78.9,78.9,30.15,South,180,0.0,14.7,100,0.01,,SKC,0.01,VWS V14.01,2013-07-18 01:46:00,
2013-07-17 21:48:00,78.8,78.8,30.14,South,180,0.0,14.7,100,0.01,,SKC,0.01,VWS V14.01,2013-07-18 01:48:00,
2013-07-17 21:49:00,78.8,78.8,30.15,South,180,0.0,14.7,100,0.01,,SKC,0.01,VWS V14.01,2013-07-18 01:49:00,
2013-07-17 21:52:00,78.7,78.7,30.15,South,180,0.0,14.7,100,0.01,,SKC,0.01,VWS V14.01,2013-07-18 01:52:00,
2013-07-17 21:53:00,78.7,78.7,30.15,South,180,0.0,14.7,100,0.01,,SKC,0.01,VWS V14.01,2013-07-18 01:53:00,
2013-07-17 21:54:00,78.5,78.5,30.15,South,180,0.0,14.7,100,0.01,,SKC,0.01,VWS V14.01,2013-07-18 01:54:00,
2013-07-17 21:57:00,78.5,78.5,30.15,South,180,0.0,14.7,100,0.01,,SKC,0.01,VWS V14.01,2013-07-18 01:57:00,
2013-07-17 21:58:00,78.4,78.4,30.15,South,180,0.0,14.7,100,0.01,,SKC,0.01,VWS V14.01,2013-07-18 01:58:00,
2013-07-17 21:59:00,78.4,78.4,30.15,South,180,0.0,14.7,100,0.01,,SKC,0.01,VWS V14.01,2013-07-18 01:59:00,
2013-07-17 22:02:00,78.4,78.4,30.15,South,180,0.0,14.7,100,0.01,,SKC,0.01,VWS V14.01,2013-07-18 02:02:00,
2013-07-17 22:03:00,78.3,78.3,30.15,South,180,0.0,14.7,100,0.01,,SKC,0.01,VWS V14.01,2013-07-18 02:03:00,
2013-07-17 22:04:00,78.3,78.3,30.15,South,180,0.0,14.7,100,0.01,,SKC,0.01,VWS V14.01,2013-07-18 02:04:00,
2013-07-17 22:05:00,78.3,78.3,30.15,South,180,0.0,14.7,100,0.01,,SKC,0.01,VWS V14.01,2013-07-18 02:05:00,
2013-07-17 22:07:00,78.3,78.3,30.16,South,180,0.0,14.7,100,0.01,,SKC,0.01,VWS V14.01,2013-07-18 02:07:00,
2013-07-17 22:08:00,78.2,78.2,30.15,South,180,0.0,14.7,100,0.01,,SKC,0.01,VWS V14.01,2013-07-18 02:08:00,
2013-07-17 22:09:00,78.2,78.2,30.16,South,180,0.0,14.7,100,0.01,,SKC,0.01,VWS V14.01,2013-07-18 02:09:00,
2013-07-17 22:10:00,78.1,78.1,30.16,South,180,0.0,14.7,100,0.01,,SKC,0.01,VWS V14.01,2013-07-18 02:10:00,
2013-07-17 22:12:00,78.1,78.1,30.16,South,180,0.0,14.7,100,0.01,,SKC,0.01,VWS V14.01,2013-07-18 02:12:00,
2013-07-17 22:14:00,78.1,78.1,30.16,South,180,0.0,14.7,100,0.01,,SKC,0.01,VWS V14.01,2013-07-18 02:14:00,
2013-07-17 22:15:00,78.1,78.1,30.16,South,180,0.0,14.7,100,0.01,,SKC,0.01,VWS V14.01,2013-07-18 02:15:00,
2013-07-17 22:17:00,78.1,78.0,30.16,South,180,0.0,14.7,100,0.01,,SKC,0.01,VWS V14.01,2013-07-18 02:17:00,
2013-07-17 22:19:00,78.0,78.0,30.16,South,180,0.0,14.7,100,0.01,,SKC,0.01,VWS V14.01,2013-07-18 02:19:00,
2013-07-17 22:20:00,78.0,78.0,30.16,South,180,0.0,14.7,100,0.01,,SKC,0.01,VWS V14.01,2013-07-18 02:20:00,
2013-07-17 22:23:00,78.0,78.0,30.16,South,180,0.0,14.7,100,0.01,,SKC,0.01,VWS V14.01,2013-07-18 02:23:00,
2013-07-17 22:24:00,78.0,78.0,30.16,South,180,0.0,14.7,100,0.01,,SKC,0.01,VWS V14.01,2013-07-18 02:24:00,
2013-07-17 22:25:00,78.0,78.0,30.16,South,180,0.0,14.7,100,0.01,,SKC,0.01,VWS V14.01,2013-07-18 02:25:00,
2013-07-17 22:28:00,78.0,78.0,30.16,South,180,0.0,14.7,100,0.01,,SKC,0.01,VWS V14.01,2013-07-18 02:28:00,
2013-07-17 22:29:00,77.9,77.9,30.16,South,180,0.0,14.7,100,0.01,,SKC,0.01,VWS V14.01,2013-07-18 02:29:00,
2013-07-17 22:30:00,77.9,77.9,30.16,South,180,0.0,14.7,100,0.01,,SKC,0.01,VWS V14.01,2013-07-18 02:30:00,
2013-07-17 22:33:00,77.9,77.9,30.16,South,180,0.0,14.7,100,0.01,,SKC,0.01,VWS V14.01,2013-07-18 02:33:00,
2013-07-17 22:35:00,77.8,77.8,30.16,South,180,0.0,14.7,100,0.01,,SKC,0.01,VWS V14.01,2013-07-18 02:35:00,
2013-07-17 22:36:00,77.8,77.8,30.16,South,180,0.0,14.7,100,0.01,,SKC,0.01,VWS V14.01,2013-07-18 02:36:00,
2013-07-17 22:38:00,77.7,77.7,30.16,South,180,0.0,14.7,100,0.01,,SKC,0.01,VWS V14.01,2013-07-18 02:38:00,
2013-07-17 22:40:00,77.7,77.7,30.16,South,180,0.0,14.7,100,0.01,,SKC,0.01,VWS V14.01,2013-07-18 02:40:00,
2013-07-17 22:41:00,77.7,77.7,30.16,South,180,0.0,14.7,100,0.01,,SKC,0.01,VWS V14.01,2013-07-18 02:41:00,
2013-07-17 22:43:00,77.5,77.5,30.16,South,180,0.0,14.7,100,0.01,,SKC,0.01,VWS V14.01,2013-07-18 02:43:00,
2013-07-17 22:45:00,77.4,77.4,30.16,South,180,0.0,14.7,100,0.01,,SKC,0.01,VWS V14.01,2013-07-18 02:45:00,
2013-07-17 22:46:00,77.5,77.5,30.16,South,180,0.0,14.7,100,0.01,,SKC,0.01,VWS V14.01,2013-07-18 02:46:00,
2013-07-17 22:48:00,77.4,77.4,30.16,South,180,0.0,14.7,100,0.01,,SKC,0.01,VWS V14.01,2013-07-18 02:48:00,
2013-07-17 22:50:00,77.4,77.4,30.16,South,180,0.0,14.7,100,0.01,,SKC,0.01,VWS V14.01,2013-07-18 02:50:00,
2013-07-17 22:51:00,77.4,77.4,30.16,South,180,0.0,14.7,100,0.01,,SKC,0.01,VWS V14.01,2013-07-18 02:51:00,
2013-07-17 22:53:00,77.3,77.3,30.16,South,180,0.0,14.7,100,0.01,,SKC,0.01,VWS V14.01,2013-07-18 02:53:00,
2013-07-17 22:55:00,77.3,77.3,30.16,South,180,0.0,14.7,100,0.01,,SKC,0.01,VWS V14.01,2013-07-18 02:55:00,
2013-07-17 22:56:00,77.3,77.3,30.16,South,180,0.0,14.7,100,0.01,,SKC,0.01,VWS V14.01,2013-07-18 02:56:00,
2013-07-17 22:58:00,77.2,77.2,30.16,South,180,0.0,14.7,100,0.01,,SKC,0.01,VWS V14.01,2013-07-18 02:58:00,
2013-07-17 23:00:00,77.1,77.1,30.16,South,180,0.0,14.7,100,0.01,,SKC,0.01,VWS V14.01,2013-07-18 03:00:00,
2013-07-17 23:01:00,77.1,77.1,30.16,South,180,0.0,14.7,100,0.01,,SKC,0.01,VWS V14.01,2013-07-18 03:01:00,
2013-07-17 23:03:00,77.1,77.0,30.16,South,180,0.0,14.7,100,0.01,,SKC,0.01,VWS V14.01,2013-07-18 03:03:00,
2013-07-17 23:05:00,75.9,75.9,30.16,South,180,0.0,14.7,100,0.01,,SKC,0.01,VWS V14.01,2013-07-18 03:05:00,
2013-07-17 23:06:00,77.0,77.0,30.16,South,180,0.0,14.7,100,0.01,,SKC,0.01,VWS V14.01,2013-07-18 03:06:00,
2013-07-17 23:07:00,76.9,77.0,30.16,South,180,0.0,14.7,100,0.01,,SKC,0.01,VWS V14.01,2013-07-18 03:07:00,
2013-07-17 23:08:00,76.9,76.9,30.16,South,180,0.0,14.7,100,0.01,,SKC,0.01,VWS V14.01,2013-07-18 03:08:00,
2013-07-17 23:09:00,75.9,75.9,30.16,South,180,0.0,14.7,100,0.01,,SKC,0.01,VWS V14.01,2013-07-18 03:09:00,
2013-07-17 23:10:00,75.9,75.9,30.16,South,180,0.0,14.7,100,0.01,,SKC,0.01,VWS V14.01,2013-07-18 03:10:00,
2013-07-17 23:11:00,76.9,76.9,30.16,South,180,0.0,14.7,100,0.01,,SKC,0.01,VWS V14.01,2013-07-18 03:11:00,
2013-07-17 23:12:00,76.9,76.9,30.16,South,180,0.0,14.7,100,0.01,,SKC,0.01,VWS V14.01,2013-07-18 03:12:00,
2013-07-17 23:14:00,76.9,76.9,30.16,South,180,0.0,14.7,100,0.01,,SKC,0.01,VWS V14.01,2013-07-18 03:14:00,
2013-07-17 23:16:00,76.8,76.8,30.16,South,180,0.0,14.7,100,0.01,,SKC,0.01,VWS V14.01,2013-07-18 03:16:00,
2013-07-17 23:17:00,76.8,76.8,30.16,South,180,0.0,14.7,100,0.01,,SKC,0.01,VWS V14.01,2013-07-18 03:17:00,
2013-07-17 23:19:00,76.7,76.7,30.16,South,180,0.0,14.7,100,0.01,,SKC,0.01,VWS V14.01,2013-07-18 03:19:00,
2013-07-17 23:21:00,76.7,76.7,30.16,South,180,0.0,14.7,100,0.01,,SKC,0.01,VWS V14.01,2013-07-18 03:21:00,
2013-07-17 23:22:00,76.7,76.7,30.16,South,180,0.0,14.7,100,0.01,,SKC,0.01,VWS V14.01,2013-07-18 03:22:00,
2013-07-17 23:24:00,76.7,76.7,30.16,South,180,0.0,14.7,100,0.01,,SKC,0.01,VWS V14.01,2013-07-18 03:24:00,
2013-07-17 23:26:00,76.6,76.6,30.16,South,180,0.0,14.7,100,0.01,,SKC,0.01,VWS V14.01,2013-07-18 03:26:00,
2013-07-17 23:27:00,76.6,76.6,30.16,South,180,0.0,14.7,100,0.01,,SKC,0.01,VWS V14.01,2013-07-18 03:27:00,
2013-07-17 23:29:00,76.4,76.4,30.16,South,180,0.0,14.7,100,0.01,,SKC,0.01,VWS V14.01,2013-07-18 03:29:00,
2013-07-17 23:31:00,76.4,76.4,30.16,South,180,0.0,14.7,100,0.01,,SKC,0.01,VWS V14.01,2013-07-18 03:31:00,
2013-07-17 23:32:00,76.4,76.4,30.16,South,180,0.0,14.7,100,0.01,,SKC,0.01,VWS V14.01,2013-07-18 03:32:00,
2013-07-17 23:33:00,76.4,76.4,30.16,South,180,0.0,14.7,100,0.01,,SKC,0.01,VWS V14.01,2013-07-18 03:33:00,
2013-07-17 23:35:00,76.4,76.4,30.16,South,180,0.0,14.7,100,0.01,,SKC,0.01,VWS V14.01,2013-07-18 03:35:00,
2013-07-17 23:36:00,76.3,76.3,30.16,South,180,0.0,14.7,100,0.01,,SKC,0.01,VWS V14.01,2013-07-18 03:36:00,
2013-07-17 23:37:00,76.4,76.4,30.16,South,180,0.0,14.7,100,0.01,,SKC,0.01,VWS V14.01,2013-07-18 03:37:00,
2013-07-17 23:38:00,76.3,76.3,30.16,South,180,0.0,14.7,100,0.01,,SKC,0.01,VWS V14.01,2013-07-18 03:38:00,
2013-07-17 23:40:00,76.3,76.3,30.16,South,180,0.0,14.7,100,0.01,,SKC,0.01,VWS V14.01,2013-07-18 03:40:00,
2013-07-17 23:41:00,76.3,76.3,30.16,South,180,0.0,14.7,100,0.01,,SKC,0.01,VWS V14.01,2013-07-18 03:41:00,
2013-07-17 23:43:00,76.3,76.3,30.16,South,180,0.0,14.7,100,0.01,,SKC,0.01,VWS V14.01,2013-07-18 03:43:00,
2013-07-17 23:45:00,76.2,76.2,30.16,South,180,0.0,14.7,100,0.01,,SKC,0.01,VWS V14.01,2013-07-18 03:45:00,
2013-07-17 23:46:00,76.2,76.2,30.16,South,180,0.0,14.7,100,0.01,,SKC,0.01,VWS V14.01,2013-07-18 03:46:00,
2013-07-17 23:47:00,76.2,76.2,30.16,South,180,0.0,14.7,100,0.01,,SKC,0.01,VWS V14.01,2013-07-18 03:47:00,
2013-07-17 23:48:00,76.1,76.1,30.16,South,180,0.0,14.7,100,0.01,,SKC,0.01,VWS V14.01,2013-07-18 03:48:00,
2013-07-17 23:50:00,76.1,76.1,30.16,South,180,0.0,14.7,100,0.01,,SKC,0.01,VWS V14.01,2013-07-18 03:50:00,
2013-07-17 23:51:00,76.0,76.0,30.16,South,180,0.0,14.7,100,0.01,,SKC,0.01,VWS V14.01,2013-07-18 03:51:00,
2013-07-17 23:52:00,76.0,76.0,30.16,South,180,0.0,14.7,100,0.01,,SKC,0.01,VWS V14.01,2013-07-18 03:52:00,
2013-07-17 23:53:00,76.0,76.0,30.16,South,180,0.0,14.7,100,0.01,,SKC,0.01,VWS V14.01,2013-07-18 03:53:00,
2013-07-17 23:55:00,75.9,75.9,30.16,South,180,0.0,14.7,100,0.01,,SKC,0.01,VWS V14.01,2013-07-18 03:55:00,
2013-07-17 23:56:00,75.9,75.9,30.15,South,180,0.0,14.7,100,0.01,,SKC,0.01,VWS V14.01,2013-07-18 03:56:00,
2013-07-17 23:57:00,75.9,75.9,30.16,South,180,0.0,14.7,100,0.01,,SKC,0.01,VWS V14.01,2013-07-18 03:57:00,
2013-07-17 23:58:00,75.8,75.8,30.16,South,180,0.0,14.7,100,0.01,,SKC,0.01,VWS V14.01,2013-07-18 03:58:00,
2013-07-17 23:59:00,75.9,75.9,30.16,South,180,0.0,14.7,100,0.01,,SKC,0.01,VWS V14.01,2013-07-18 03:59:00,